Wetterdaten: aktuell Mittwoch, 19.01.2022 12:55
Datum Zeit Temp. Feuchte A. Luftdruck Regen Wind Richtung Richtung Taupunkt Windben
19.01.2022 12:55 3,1 C 89 % 1036,5 hPa 0,0 mm 2,7 km/h (1 Bft) S 177 1,5 C 7,2 km/h (2 Bft)
19.01.2022 12:54 3,1 C 89 % 1036,5 hPa 0,0 mm 1,4 km/h (1 Bft) SW 235 1,5 C 7,2 km/h (2 Bft)
19.01.2022 12:53 3,1 C 88 % 1036,5 hPa 0,0 mm 1,4 km/h (1 Bft) W-SW 240 1,3 C 7,2 km/h (2 Bft)
19.01.2022 12:52 3,1 C 88 % 1036,5 hPa 0,0 mm 0,5 km/h (0 Bft) S 172 1,3 C 2,4 km/h (1 Bft)
19.01.2022 12:51 3,0 C 88 % 1036,5 hPa 0,0 mm 0,7 km/h (0 Bft) S-SO 165 1,2 C 2,4 km/h (1 Bft)
19.01.2022 12:50 3,0 C 88 % 1036,5 hPa 0,0 mm 4,8 km/h (1 Bft) S-SW 198 1,2 C 12,0 km/h (2 Bft)
19.01.2022 12:49 3,0 C 88 % 1036,5 hPa 0,0 mm 3,4 km/h (1 Bft) SW 214 1,2 C 7,2 km/h (2 Bft)
19.01.2022 12:48 3,0 C 88 % 1036,5 hPa 0,0 mm 3,3 km/h (1 Bft) S-SW 205 1,2 C 9,6 km/h (2 Bft)
19.01.2022 12:47 3,0 C 88 % 1036,5 hPa 0,0 mm 4,1 km/h (1 Bft) S-SO 165 1,2 C 9,6 km/h (2 Bft)
19.01.2022 12:46 3,0 C 88 % 1036,5 hPa 0,0 mm 1,6 km/h (1 Bft) S 170 1,2 C 4,8 km/h (1 Bft)
19.01.2022 12:45 3,0 C 89 % 1036,5 hPa 0,0 mm 1,5 km/h (1 Bft) S-SW 196 1,4 C 4,8 km/h (1 Bft)
19.01.2022 12:44 3,0 C 89 % 1036,5 hPa 0,0 mm 3,3 km/h (1 Bft) W 259 1,4 C 7,2 km/h (2 Bft)
19.01.2022 12:43 3,0 C 89 % 1036,5 hPa 0,0 mm 3,1 km/h (1 Bft) SO 145 1,4 C 7,2 km/h (2 Bft)
19.01.2022 12:42 3,0 C 89 % 1036,5 hPa 0,0 mm 1,9 km/h (1 Bft) W-SW 245 1,4 C 4,8 km/h (1 Bft)
19.01.2022 12:41 3,0 C 89 % 1036,5 hPa 0,0 mm 3,8 km/h (1 Bft) SW 225 1,4 C 9,6 km/h (2 Bft)
19.01.2022 12:40 3,0 C 89 % 1036,5 hPa 0,0 mm 2,2 km/h (1 Bft) SW 236 1,4 C 4,8 km/h (1 Bft)
19.01.2022 12:39 2,9 C 89 % 1036,5 hPa 0,0 mm 3,3 km/h (1 Bft) S-SO 148 1,3 C 7,2 km/h (2 Bft)
19.01.2022 12:38 2,9 C 89 % 1036,5 hPa 0,0 mm 1,4 km/h (1 Bft) SW 223 1,3 C 4,8 km/h (1 Bft)
19.01.2022 12:37 2,9 C 89 % 1036,5 hPa 0,0 mm 3,0 km/h (1 Bft) S-SW 211 1,3 C 9,6 km/h (2 Bft)
19.01.2022 12:36 2,9 C 89 % 1036,5 hPa 0,0 mm 7,2 km/h (2 Bft) O 91 1,3 C 14,4 km/h (3 Bft)
19.01.2022 12:35 2,9 C 89 % 1036,5 hPa 0,0 mm 6,1 km/h (2 Bft) S 170 1,3 C 12,0 km/h (2 Bft)
19.01.2022 12:34 2,9 C 89 % 1036,5 hPa 0,0 mm 5,0 km/h (1 Bft) SW 225 1,3 C 12,0 km/h (2 Bft)
19.01.2022 12:33 2,9 C 89 % 1036,5 hPa 0,0 mm 0,6 km/h (0 Bft) W-SW 250 1,3 C 4,8 km/h (1 Bft)
19.01.2022 12:32 2,8 C 89 % 1036,5 hPa 0,0 mm 0,7 km/h (0 Bft) O-SO 105 1,2 C 4,8 km/h (1 Bft)
19.01.2022 12:31 2,8 C 89 % 1036,5 hPa 0,0 mm 2,8 km/h (1 Bft) SW 215 1,2 C 9,6 km/h (2 Bft)
19.01.2022 12:30 2,8 C 89 % 1036,5 hPa 0,0 mm 3,1 km/h (1 Bft) S-SO 158 1,2 C 4,8 km/h (1 Bft)
19.01.2022 12:29 2,8 C 89 % 1036,5 hPa 0,0 mm 4,5 km/h (1 Bft) S-SW 198 1,2 C 7,2 km/h (2 Bft)
19.01.2022 12:28 2,8 C 89 % 1036,5 hPa 0,0 mm 4,4 km/h (1 Bft) SW 229 1,2 C 12,0 km/h (2 Bft)
19.01.2022 12:27 2,8 C 89 % 1036,5 hPa 0,0 mm 1,5 km/h (1 Bft) SW 222 1,2 C 4,8 km/h (1 Bft)
19.01.2022 12:26 2,8 C 89 % 1036,5 hPa 0,0 mm 1,2 km/h (1 Bft) W-SW 257 1,2 C 2,4 km/h (1 Bft)
19.01.2022 12:25 2,8 C 89 % 1036,5 hPa 0,0 mm 1,5 km/h (1 Bft) S 187 1,2 C 7,2 km/h (2 Bft)
19.01.2022 12:24 2,8 C 89 % 1036,5 hPa 0,0 mm 1,9 km/h (1 Bft) S-SO 150 1,2 C 4,8 km/h (1 Bft)
19.01.2022 12:23 2,8 C 89 % 1036,5 hPa 0,0 mm 3,4 km/h (1 Bft) S-SO 167 1,2 C 9,6 km/h (2 Bft)
19.01.2022 12:22 2,7 C 89 % 1036,5 hPa 0,0 mm 2,6 km/h (1 Bft) S-SO 156 1,1 C 12,0 km/h (2 Bft)
19.01.2022 12:21 2,7 C 89 % 1036,5 hPa 0,0 mm 4,0 km/h (1 Bft) S-SW 205 1,1 C 19,2 km/h (3 Bft)
19.01.2022 12:20 2,7 C 89 % 1036,5 hPa 0,0 mm 3,5 km/h (1 Bft) S-SO 159 1,1 C 9,6 km/h (2 Bft)
19.01.2022 12:19 2,7 C 89 % 1036,5 hPa 0,0 mm 3,8 km/h (1 Bft) S 169 1,1 C 7,2 km/h (2 Bft)
19.01.2022 12:18 2,7 C 89 % 1036,5 hPa 0,0 mm 3,2 km/h (1 Bft) W-SW 253 1,1 C 7,2 km/h (2 Bft)
19.01.2022 12:17 2,7 C 89 % 1036,5 hPa 0,0 mm 6,9 km/h (2 Bft) S-SO 165 1,1 C 12,0 km/h (2 Bft)
19.01.2022 12:16 2,7 C 89 % 1036,5 hPa 0,0 mm 5,1 km/h (1 Bft) O-NO 64 1,1 C 9,6 km/h (2 Bft)
19.01.2022 12:15 2,7 C 89 % 1036,5 hPa 0,0 mm 5,2 km/h (1 Bft) S-SO 160 1,1 C 14,4 km/h (3 Bft)
19.01.2022 12:14 2,7 C 89 % 1036,5 hPa 0,0 mm 4,7 km/h (1 Bft) S 172 1,1 C 9,6 km/h (2 Bft)
19.01.2022 12:13 2,7 C 89 % 1036,5 hPa 0,0 mm 4,8 km/h (1 Bft) W-SW 248 1,1 C 14,4 km/h (3 Bft)
19.01.2022 12:12 2,7 C 89 % 1036,5 hPa 0,0 mm 5,0 km/h (1 Bft) S 184 1,1 C 14,4 km/h (3 Bft)
19.01.2022 12:11 2,7 C 89 % 1036,5 hPa 0,0 mm 6,5 km/h (2 Bft) S 187 1,1 C 14,4 km/h (3 Bft)
19.01.2022 12:10 2,7 C 90 % 1036,5 hPa 0,0 mm 4,8 km/h (1 Bft) W-SW 240 1,2 C 9,6 km/h (2 Bft)
19.01.2022 12:09 2,7 C 90 % 1036,5 hPa 0,0 mm 3,1 km/h (1 Bft) S-SO 149 1,2 C 9,6 km/h (2 Bft)
19.01.2022 12:08 2,7 C 90 % 1036,5 hPa 0,0 mm 4,0 km/h (1 Bft) S-SO 151 1,2 C 9,6 km/h (2 Bft)
19.01.2022 12:07 2,6 C 90 % 1036,5 hPa 0,0 mm 3,8 km/h (1 Bft) W 269 1,1 C 9,6 km/h (2 Bft)
19.01.2022 12:06 2,6 C 90 % 1036,5 hPa 0,0 mm 2,9 km/h (1 Bft) W 276 1,1 C 7,2 km/h (2 Bft)
19.01.2022 12:05 2,6 C 90 % 1036,5 hPa 0,0 mm 3,2 km/h (1 Bft) S-SO 159 1,1 C 7,2 km/h (2 Bft)
19.01.2022 12:04 2,6 C 90 % 1036,5 hPa 0,0 mm 5,5 km/h (1 Bft) W 265 1,1 C 9,6 km/h (2 Bft)
19.01.2022 12:03 2,6 C 90 % 1036,5 hPa 0,0 mm 3,3 km/h (1 Bft) SW 224 1,1 C 7,2 km/h (2 Bft)
19.01.2022 12:02 2,6 C 90 % 1036,5 hPa 0,0 mm 4,6 km/h (1 Bft) W-SW 252 1,1 C 12,0 km/h (2 Bft)
19.01.2022 12:00 2,6 C 90 % 1036,5 hPa 0,0 mm 4,0 km/h (1 Bft) S-SO 165 1,1 C 9,6 km/h (2 Bft)
19.01.2022 11:59 2,6 C 90 % 1036,5 hPa 0,0 mm 4,0 km/h (1 Bft) S-SO 155 1,1 C 7,2 km/h (2 Bft)
19.01.2022 11:58 2,6 C 90 % 1036,5 hPa 0,0 mm 4,6 km/h (1 Bft) S-SO 165 1,1 C 9,6 km/h (2 Bft)
19.01.2022 11:57 2,5 C 90 % 1036,5 hPa 0,0 mm 2,6 km/h (1 Bft) W-SW 254 1,0 C 9,6 km/h (2 Bft)
19.01.2022 11:56 2,5 C 90 % 1036,5 hPa 0,0 mm 7,2 km/h (2 Bft) S-SO 148 1,0 C 14,4 km/h (3 Bft)
19.01.2022 11:55 2,5 C 90 % 1036,5 hPa 0,0 mm 4,9 km/h (1 Bft) S-SO 155 1,0 C 9,6 km/h (2 Bft)
19.01.2022 11:54 2,5 C 90 % 1036,5 hPa 0,0 mm 5,8 km/h (2 Bft) O-SO 114 1,0 C 12,0 km/h (2 Bft)
19.01.2022 11:53 2,5 C 90 % 1036,5 hPa 0,0 mm 3,4 km/h (1 Bft) SW 219 1,0 C 7,2 km/h (2 Bft)
19.01.2022 11:52 2,5 C 90 % 1036,5 hPa 0,0 mm 2,1 km/h (1 Bft) SW 217 1,0 C 4,8 km/h (1 Bft)
19.01.2022 11:51 2,4 C 90 % 1036,5 hPa 0,0 mm 1,5 km/h (1 Bft) SW 217 0,9 C 4,8 km/h (1 Bft)
19.01.2022 11:50 2,4 C 90 % 1036,5 hPa 0,0 mm 2,1 km/h (1 Bft) W-SW 239 0,9 C 7,2 km/h (2 Bft)
19.01.2022 11:49 2,4 C 90 % 1036,5 hPa 0,0 mm 3,6 km/h (1 Bft) S-SO 148 0,9 C 7,2 km/h (2 Bft)
19.01.2022 11:48 2,4 C 90 % 1036,5 hPa 0,0 mm 3,7 km/h (1 Bft) SW 228 0,9 C 12,0 km/h (2 Bft)
19.01.2022 11:47 2,4 C 90 % 1036,5 hPa 0,0 mm 3,0 km/h (1 Bft) S 173 0,9 C 9,6 km/h (2 Bft)
19.01.2022 11:46 2,4 C 90 % 1036,5 hPa 0,0 mm 6,6 km/h (2 Bft) SW 232 0,9 C 12,0 km/h (2 Bft)
19.01.2022 11:45 2,4 C 90 % 1036,5 hPa 0,0 mm 0,8 km/h (0 Bft) SW 225 0,9 C 4,8 km/h (1 Bft)
19.01.2022 11:44 2,4 C 90 % 1036,5 hPa 0,0 mm 1,6 km/h (1 Bft) W-SW 243 0,9 C 4,8 km/h (1 Bft)
19.01.2022 11:43 2,3 C 90 % 1036,5 hPa 0,0 mm 0,9 km/h (0 Bft) SO 141 0,8 C 4,8 km/h (1 Bft)
19.01.2022 11:42 2,3 C 90 % 1036,5 hPa 0,0 mm 4,6 km/h (1 Bft) SO 143 0,8 C 12,0 km/h (2 Bft)
19.01.2022 11:41 2,3 C 90 % 1036,5 hPa 0,0 mm 5,9 km/h (2 Bft) O 98 0,8 C 14,4 km/h (3 Bft)
19.01.2022 11:40 2,3 C 91 % 1036,5 hPa 0,0 mm 6,4 km/h (2 Bft) SO 143 1,0 C 14,4 km/h (3 Bft)
19.01.2022 11:39 2,3 C 91 % 1036,5 hPa 0,0 mm 6,1 km/h (2 Bft) W-SW 238 1,0 C 16,8 km/h (3 Bft)
19.01.2022 11:38 2,3 C 91 % 1036,5 hPa 0,0 mm 2,2 km/h (1 Bft) W-SW 245 1,0 C 7,2 km/h (2 Bft)
19.01.2022 11:37 2,3 C 91 % 1036,5 hPa 0,0 mm 4,8 km/h (1 Bft) S-SW 212 1,0 C 9,6 km/h (2 Bft)
19.01.2022 11:36 2,3 C 91 % 1036,5 hPa 0,0 mm 3,2 km/h (1 Bft) W-SW 250 1,0 C 9,6 km/h (2 Bft)
19.01.2022 11:35 2,2 C 91 % 1036,5 hPa 0,0 mm 4,5 km/h (1 Bft) S-SW 207 0,9 C 12,0 km/h (2 Bft)
19.01.2022 11:34 2,2 C 91 % 1036,5 hPa 0,0 mm 9,4 km/h (2 Bft) S 170 0,9 C 14,4 km/h (3 Bft)
19.01.2022 11:33 2,2 C 91 % 1036,5 hPa 0,0 mm 4,8 km/h (1 Bft) S 170 0,9 C 12,0 km/h (2 Bft)
19.01.2022 11:32 2,2 C 91 % 1036,5 hPa 0,0 mm 2,2 km/h (1 Bft) W 260 0,9 C 9,6 km/h (2 Bft)
19.01.2022 11:31 2,2 C 91 % 1036,5 hPa 0,0 mm 7,1 km/h (2 Bft) S 170 0,9 C 14,4 km/h (3 Bft)
19.01.2022 11:30 2,2 C 91 % 1036,5 hPa 0,0 mm 2,3 km/h (1 Bft) SW 214 0,9 C 4,8 km/h (1 Bft)
19.01.2022 11:29 2,2 C 91 % 1036,5 hPa 0,0 mm 3,1 km/h (1 Bft) S-SO 149 0,9 C 7,2 km/h (2 Bft)
19.01.2022 11:28 2,2 C 91 % 1036,5 hPa 0,0 mm 2,9 km/h (1 Bft) S-SO 153 0,9 C 7,2 km/h (2 Bft)
19.01.2022 11:27 2,2 C 91 % 1036,5 hPa 0,0 mm 1,1 km/h (1 Bft) S-SW 211 0,9 C 4,8 km/h (1 Bft)
19.01.2022 11:26 2,2 C 91 % 1036,5 hPa 0,0 mm 4,8 km/h (1 Bft) W-SW 245 0,9 C 9,6 km/h (2 Bft)
19.01.2022 11:25 2,2 C 91 % 1036,5 hPa 0,0 mm 5,1 km/h (1 Bft) S-SO 166 0,9 C 9,6 km/h (2 Bft)
19.01.2022 11:24 2,2 C 91 % 1036,5 hPa 0,0 mm 3,6 km/h (1 Bft) S 177 0,9 C 9,6 km/h (2 Bft)
19.01.2022 11:23 2,1 C 91 % 1036,5 hPa 0,0 mm 1,6 km/h (1 Bft) O-NO 77 0,8 C 4,8 km/h (1 Bft)
19.01.2022 11:22 2,1 C 91 % 1036,5 hPa 0,0 mm 1,1 km/h (1 Bft) W-SW 246 0,8 C 4,8 km/h (1 Bft)
19.01.2022 11:21 2,1 C 91 % 1036,5 hPa 0,0 mm 3,0 km/h (1 Bft) SO 143 0,8 C 7,2 km/h (2 Bft)
19.01.2022 11:20 2,1 C 91 % 1036,5 hPa 0,0 mm 6,0 km/h (2 Bft) S-SW 210 0,8 C 9,6 km/h (2 Bft)
19.01.2022 11:19 2,1 C 91 % 1036,5 hPa 0,0 mm 0,4 km/h (0 Bft) SW 215 0,8 C 2,4 km/h (1 Bft)
19.01.2022 11:18 2,1 C 91 % 1036,5 hPa 0,0 mm 1,3 km/h (1 Bft) W-SW 239 0,8 C 4,8 km/h (1 Bft)
19.01.2022 11:17 2,1 C 91 % 1036,5 hPa 0,0 mm 3,7 km/h (1 Bft) W-SW 250 0,8 C 12,0 km/h (2 Bft)
19.01.2022 11:16 2,1 C 91 % 1036,5 hPa 0,0 mm 0,2 km/h (0 Bft) SW 217 0,8 C 2,4 km/h (1 Bft)
19.01.2022 11:15 2,1 C 91 % 1036,5 hPa 0,0 mm 1,0 km/h (0 Bft) W-SW 250 0,8 C 2,4 km/h (1 Bft)
19.01.2022 11:14 2,0 C 91 % 1036,5 hPa 0,0 mm 4,0 km/h (1 Bft) S-SO 167 0,7 C 12,0 km/h (2 Bft)
19.01.2022 11:13 2,0 C 91 % 1036,5 hPa 0,0 mm 2,3 km/h (1 Bft) S 186 0,7 C 4,8 km/h (1 Bft)
19.01.2022 11:12 1,9 C 91 % 1036,5 hPa 0,0 mm 2,2 km/h (1 Bft) SO 129 0,6 C 7,2 km/h (2 Bft)
19.01.2022 11:11 1,9 C 91 % 1036,5 hPa 0,0 mm 1,7 km/h (1 Bft) W-SW 246 0,6 C 9,6 km/h (2 Bft)
19.01.2022 11:10 1,9 C 91 % 1036,5 hPa 0,0 mm 1,1 km/h (1 Bft) SW 230 0,6 C 2,4 km/h (1 Bft)
19.01.2022 11:09 1,9 C 91 % 1036,5 hPa 0,0 mm 2,6 km/h (1 Bft) S-SW 211 0,6 C 7,2 km/h (2 Bft)
19.01.2022 11:08 1,9 C 91 % 1036,5 hPa 0,0 mm 0,7 km/h (0 Bft) N-NW 342 0,6 C 4,8 km/h (1 Bft)
19.01.2022 11:07 1,9 C 91 % 1036,5 hPa 0,0 mm 4,9 km/h (1 Bft) S 184 0,6 C 12,0 km/h (2 Bft)
19.01.2022 11:06 1,9 C 91 % 1036,5 hPa 0,0 mm 3,6 km/h (1 Bft) S-SW 210 0,6 C 9,6 km/h (2 Bft)
19.01.2022 11:05 1,9 C 91 % 1036,5 hPa 0,0 mm 3,8 km/h (1 Bft) SW 226 0,6 C 9,6 km/h (2 Bft)
19.01.2022 11:04 1,9 C 91 % 1036,5 hPa 0,0 mm 4,1 km/h (1 Bft) SW 217 0,6 C 9,6 km/h (2 Bft)
19.01.2022 11:03 1,9 C 91 % 1036,5 hPa 0,0 mm 4,0 km/h (1 Bft) S-SO 165 0,6 C 12,0 km/h (2 Bft)
19.01.2022 11:02 1,9 C 91 % 1036,5 hPa 0,0 mm 6,9 km/h (2 Bft) SO 143 0,6 C 14,4 km/h (3 Bft)
19.01.2022 11:00 1,8 C 91 % 1036,5 hPa 0,0 mm 5,5 km/h (1 Bft) SW 219 0,5 C 9,6 km/h (2 Bft)
19.01.2022 10:59 1,8 C 91 % 1036,5 hPa 0,0 mm 3,8 km/h (1 Bft) S 174 0,5 C 14,4 km/h (3 Bft)
19.01.2022 10:58 1,8 C 91 % 1036,5 hPa 0,0 mm 8,4 km/h (2 Bft) O 86 0,5 C 12,0 km/h (2 Bft)
19.01.2022 10:57 1,8 C 91 % 1036,5 hPa 0,0 mm 5,8 km/h (2 Bft) S 180 0,5 C 14,4 km/h (3 Bft)
19.01.2022 10:56 1,8 C 91 % 1036,5 hPa 0,0 mm 3,4 km/h (1 Bft) W-SW 249 0,5 C 9,6 km/h (2 Bft)
19.01.2022 10:55 1,8 C 91 % 1036,5 hPa 0,0 mm 3,0 km/h (1 Bft) SO 143 0,5 C 7,2 km/h (2 Bft)
19.01.2022 10:54 1,8 C 91 % 1036,5 hPa 0,0 mm 2,3 km/h (1 Bft) S 190 0,5 C 7,2 km/h (2 Bft)
19.01.2022 10:53 1,8 C 91 % 1036,5 hPa 0,0 mm 4,4 km/h (1 Bft) SW 231 0,5 C 12,0 km/h (2 Bft)
19.01.2022 10:52 1,8 C 91 % 1036,5 hPa 0,0 mm 4,3 km/h (1 Bft) W-SW 238 0,5 C 9,6 km/h (2 Bft)
19.01.2022 10:51 1,9 C 91 % 1036,5 hPa 0,0 mm 2,9 km/h (1 Bft) S-SO 166 0,6 C 7,2 km/h (2 Bft)
19.01.2022 10:50 1,9 C 91 % 1036,5 hPa 0,0 mm 2,6 km/h (1 Bft) W-SW 256 0,6 C 9,6 km/h (2 Bft)
19.01.2022 10:49 1,9 C 91 % 1036,5 hPa 0,0 mm 1,6 km/h (1 Bft) W-SW 243 0,6 C 9,6 km/h (2 Bft)
19.01.2022 10:48 1,9 C 91 % 1036,5 hPa 0,0 mm 1,4 km/h (1 Bft) S-SW 207 0,6 C 4,8 km/h (1 Bft)
19.01.2022 10:47 1,9 C 91 % 1036,5 hPa 0,0 mm 1,9 km/h (1 Bft) W-SW 245 0,6 C 2,4 km/h (1 Bft)
19.01.2022 10:46 1,9 C 90 % 1036,5 hPa 0,0 mm 2,5 km/h (1 Bft) O-SO 119 0,4 C 9,6 km/h (2 Bft)
19.01.2022 10:45 1,9 C 90 % 1036,5 hPa 0,0 mm 2,2 km/h (1 Bft) SO 127 0,4 C 7,2 km/h (2 Bft)
19.01.2022 10:44 1,9 C 90 % 1036,5 hPa 0,0 mm 2,1 km/h (1 Bft) S-SO 148 0,4 C 7,2 km/h (2 Bft)
19.01.2022 10:43 1,9 C 90 % 1036,5 hPa 0,0 mm 2,6 km/h (1 Bft) S-SW 210 0,4 C 4,8 km/h (1 Bft)
19.01.2022 10:42 1,9 C 90 % 1036,5 hPa 0,0 mm 3,3 km/h (1 Bft) SO 145 0,4 C 9,6 km/h (2 Bft)
19.01.2022 10:41 2,0 C 90 % 1036,5 hPa 0,0 mm 1,7 km/h (1 Bft) SO 131 0,5 C 9,6 km/h (2 Bft)
19.01.2022 10:40 2,0 C 90 % 1036,5 hPa 0,0 mm 1,4 km/h (1 Bft) W 263 0,5 C 4,8 km/h (1 Bft)
19.01.2022 10:39 2,0 C 90 % 1036,5 hPa 0,0 mm 1,3 km/h (1 Bft) SW 225 0,5 C 4,8 km/h (1 Bft)
19.01.2022 10:38 2,1 C 90 % 1036,5 hPa 0,0 mm 2,5 km/h (1 Bft) W-NW 297 0,6 C 7,2 km/h (2 Bft)
19.01.2022 10:37 2,1 C 90 % 1036,5 hPa 0,0 mm 3,3 km/h (1 Bft) SW 230 0,6 C 12,0 km/h (2 Bft)
19.01.2022 10:36 2,1 C 90 % 1036,5 hPa 0,0 mm 9,3 km/h (2 Bft) W-SW 241 0,6 C 16,8 km/h (3 Bft)
19.01.2022 10:35 2,2 C 89 % 1036,5 hPa 0,0 mm 2,4 km/h (1 Bft) W 259 0,6 C 9,6 km/h (2 Bft)
19.01.2022 10:34 2,2 C 89 % 1036,5 hPa 0,0 mm 6,8 km/h (2 Bft) SW 217 0,6 C 9,6 km/h (2 Bft)
19.01.2022 10:33 2,2 C 89 % 1036,5 hPa 0,0 mm 6,9 km/h (2 Bft) W-SW 242 0,6 C 14,4 km/h (3 Bft)
19.01.2022 10:32 2,3 C 89 % 1036,5 hPa 0,0 mm 3,1 km/h (1 Bft) W 281 0,7 C 7,2 km/h (2 Bft)
19.01.2022 10:31 2,3 C 89 % 1036,5 hPa 0,0 mm 5,3 km/h (1 Bft) W-SW 257 0,7 C 9,6 km/h (2 Bft)
19.01.2022 10:30 2,4 C 89 % 1036,5 hPa 0,0 mm 6,9 km/h (2 Bft) S 191 0,8 C 9,6 km/h (2 Bft)
19.01.2022 10:29 2,4 C 89 % 1036,5 hPa 0,0 mm 9,5 km/h (2 Bft) S 179 0,8 C 19,2 km/h (3 Bft)
19.01.2022 10:28 2,5 C 90 % 1036,5 hPa 0,0 mm 6,3 km/h (2 Bft) SW 222 1,0 C 19,2 km/h (3 Bft)
19.01.2022 10:27 2,6 C 90 % 1036,5 hPa 0,0 mm 4,9 km/h (1 Bft) W-NW 297 1,1 C 9,6 km/h (2 Bft)
19.01.2022 10:26 2,6 C 90 % 1036,5 hPa 0,0 mm 7,9 km/h (2 Bft) O-SO 111 1,1 C 16,8 km/h (3 Bft)
19.01.2022 10:25 2,6 C 90 % 1036,5 hPa 0,0 mm 6,6 km/h (2 Bft) S 188 1,1 C 12,0 km/h (2 Bft)
19.01.2022 10:24 2,6 C 90 % 1036,5 hPa 0,0 mm 5,4 km/h (1 Bft) O-SO 115 1,1 C 14,4 km/h (3 Bft)
19.01.2022 10:23 2,6 C 90 % 1036,5 hPa 0,0 mm 5,3 km/h (1 Bft) S-SW 212 1,1 C 12,0 km/h (2 Bft)
19.01.2022 10:22 2,6 C 90 % 1036,5 hPa 0,0 mm 5,5 km/h (1 Bft) SW 226 1,1 C 9,6 km/h (2 Bft)
19.01.2022 10:21 2,6 C 90 % 1036,5 hPa 0,0 mm 3,2 km/h (1 Bft) W-SW 239 1,1 C 7,2 km/h (2 Bft)
19.01.2022 10:20 2,6 C 90 % 1036,5 hPa 0,0 mm 4,1 km/h (1 Bft) W 265 1,1 C 9,6 km/h (2 Bft)
19.01.2022 10:19 2,6 C 90 % 1036,5 hPa 0,0 mm 3,4 km/h (1 Bft) W 265 1,1 C 7,2 km/h (2 Bft)
19.01.2022 10:18 2,5 C 90 % 1036,5 hPa 0,0 mm 1,5 km/h (1 Bft) SW 215 1,0 C 4,8 km/h (1 Bft)
19.01.2022 10:17 2,5 C 90 % 1036,5 hPa 0,0 mm 1,8 km/h (1 Bft) W 264 1,0 C 4,8 km/h (1 Bft)
19.01.2022 10:16 2,4 C 90 % 1036,5 hPa 0,0 mm 3,1 km/h (1 Bft) SW 236 0,9 C 7,2 km/h (2 Bft)
19.01.2022 10:15 2,4 C 90 % 1036,5 hPa 0,0 mm 3,1 km/h (1 Bft) SW 222 0,9 C 7,2 km/h (2 Bft)
19.01.2022 10:14 2,4 C 90 % 1036,5 hPa 0,0 mm 2,6 km/h (1 Bft) SW 222 0,9 C 4,8 km/h (1 Bft)
19.01.2022 10:13 2,4 C 90 % 1036,5 hPa 0,0 mm 0,4 km/h (0 Bft) SW 225 0,9 C 2,4 km/h (1 Bft)
19.01.2022 10:12 2,4 C 90 % 1036,5 hPa 0,0 mm 2,8 km/h (1 Bft) S-SO 148 0,9 C 7,2 km/h (2 Bft)
19.01.2022 10:11 2,4 C 90 % 1036,5 hPa 0,0 mm 3,3 km/h (1 Bft) S-SO 168 0,9 C 7,2 km/h (2 Bft)
19.01.2022 10:10 2,4 C 90 % 1036,5 hPa 0,0 mm 3,5 km/h (1 Bft) S-SW 212 0,9 C 7,2 km/h (2 Bft)
19.01.2022 10:09 2,4 C 90 % 1036,5 hPa 0,0 mm 3,4 km/h (1 Bft) S-SO 149 0,9 C 9,6 km/h (2 Bft)
19.01.2022 10:08 2,4 C 90 % 1036,5 hPa 0,0 mm 2,7 km/h (1 Bft) W-SW 240 0,9 C 9,6 km/h (2 Bft)
19.01.2022 10:07 2,4 C 90 % 1036,5 hPa 0,0 mm 4,6 km/h (1 Bft) S-SW 207 0,9 C 9,6 km/h (2 Bft)
19.01.2022 10:06 2,5 C 90 % 1036,5 hPa 0,0 mm 4,5 km/h (1 Bft) W-SW 249 1,0 C 9,6 km/h (2 Bft)
19.01.2022 10:05 2,5 C 90 % 1036,5 hPa 0,0 mm 4,9 km/h (1 Bft) W-SW 239 1,0 C 12,0 km/h (2 Bft)
19.01.2022 10:04 2,5 C 90 % 1036,5 hPa 0,0 mm 2,4 km/h (1 Bft) W-SW 242 1,0 C 7,2 km/h (2 Bft)
19.01.2022 10:03 2,5 C 90 % 1036,5 hPa 0,0 mm 0,0 km/h (0 Bft) S-SW 210 1,0 C 0,0 km/h (0 Bft)
19.01.2022 10:02 2,5 C 90 % 1036,5 hPa 0,0 mm 1,1 km/h (1 Bft) W-SW 255 1,0 C 7,2 km/h (2 Bft)
19.01.2022 10:00 2,5 C 90 % 1036,5 hPa 0,0 mm 2,6 km/h (1 Bft) SO 146 1,0 C 7,2 km/h (2 Bft)
19.01.2022 09:59 2,5 C 90 % 1036,5 hPa 0,0 mm 1,2 km/h (1 Bft) SW 218 1,0 C 4,8 km/h (1 Bft)
19.01.2022 09:58 2,5 C 90 % 1036,5 hPa 0,0 mm 2,4 km/h (1 Bft) SW 215 1,0 C 7,2 km/h (2 Bft)
19.01.2022 09:57 2,6 C 90 % 1036,5 hPa 0,0 mm 0,7 km/h (0 Bft) SW 233 1,1 C 2,4 km/h (1 Bft)
19.01.2022 09:56 2,6 C 90 % 1036,5 hPa 0,0 mm 2,9 km/h (1 Bft) W 273 1,1 C 7,2 km/h (2 Bft)
19.01.2022 09:55 2,6 C 90 % 1036,5 hPa 0,0 mm 2,8 km/h (1 Bft) SW 221 1,1 C 9,6 km/h (2 Bft)
19.01.2022 09:54 2,7 C 90 % 1036,5 hPa 0,0 mm 2,5 km/h (1 Bft) S 190 1,2 C 7,2 km/h (2 Bft)
19.01.2022 09:53 2,7 C 90 % 1036,5 hPa 0,0 mm 3,3 km/h (1 Bft) SW 228 1,2 C 4,8 km/h (1 Bft)
19.01.2022 09:52 2,7 C 90 % 1036,5 hPa 0,0 mm 0,9 km/h (0 Bft) S 185 1,2 C 2,4 km/h (1 Bft)
19.01.2022 09:51 2,7 C 90 % 1036,5 hPa 0,0 mm 0,1 km/h (0 Bft) SW 228 1,2 C 2,4 km/h (1 Bft)
19.01.2022 09:50 2,7 C 90 % 1036,5 hPa 0,0 mm 1,2 km/h (1 Bft) W-SW 247 1,2 C 4,8 km/h (1 Bft)
19.01.2022 09:49 2,7 C 90 % 1036,5 hPa 0,0 mm 0,1 km/h (0 Bft) SW 236 1,2 C 2,4 km/h (1 Bft)
19.01.2022 09:48 2,7 C 90 % 1036,5 hPa 0,0 mm 0,4 km/h (0 Bft) SW 232 1,2 C 2,4 km/h (1 Bft)
19.01.2022 09:47 2,8 C 90 % 1036,5 hPa 0,0 mm 0,8 km/h (0 Bft) W 269 1,3 C 4,8 km/h (1 Bft)
19.01.2022 09:46 2,8 C 90 % 1036,5 hPa 0,0 mm 0,3 km/h (0 Bft) SW 231 1,3 C 2,4 km/h (1 Bft)
19.01.2022 09:45 2,8 C 90 % 1036,5 hPa 0,0 mm 0,3 km/h (0 Bft) SW 217 1,3 C 2,4 km/h (1 Bft)
19.01.2022 09:44 2,8 C 90 % 1036,5 hPa 0,0 mm 0,0 km/h (0 Bft) S 173 1,3 C 0,0 km/h (0 Bft)
19.01.2022 09:43 2,8 C 90 % 1036,5 hPa 0,0 mm 0,6 km/h (0 Bft) SW 219 1,3 C 2,4 km/h (1 Bft)
19.01.2022 09:42 2,9 C 90 % 1036,5 hPa 0,0 mm 0,6 km/h (0 Bft) SW 221 1,4 C 2,4 km/h (1 Bft)
19.01.2022 09:41 2,9 C 90 % 1036,5 hPa 0,0 mm 0,0 km/h (0 Bft) O 80 1,4 C 0,0 km/h (0 Bft)
19.01.2022 09:40 2,9 C 90 % 1036,5 hPa 0,0 mm 0,0 km/h (0 Bft) O 81 1,4 C 0,0 km/h (0 Bft)
19.01.2022 09:39 3,0 C 90 % 1036,5 hPa 0,0 mm 0,0 km/h (0 Bft) O 80 1,5 C 0,0 km/h (0 Bft)
19.01.2022 09:38 3,1 C 90 % 1036,5 hPa 0,0 mm 0,0 km/h (0 Bft) O 80 1,6 C 0,0 km/h (0 Bft)
19.01.2022 09:37 3,2 C 90 % 1036,5 hPa 0,0 mm 0,0 km/h (0 Bft) O 81 1,7 C 0,0 km/h (0 Bft)
19.01.2022 09:36 3,3 C 91 % 1036,5 hPa 0,0 mm 0,0 km/h (0 Bft) O-NO 77 2,0 C 0,0 km/h (0 Bft)
19.01.2022 09:35 3,3 C 91 % 1036,5 hPa 0,0 mm 0,0 km/h (0 Bft) O-NO 77 2,0 C 0,0 km/h (0 Bft)
19.01.2022 09:34 3,4 C 92 % 1036,5 hPa 0,0 mm 0,0 km/h (0 Bft) O-NO 77 2,2 C 0,0 km/h (0 Bft)
19.01.2022 09:33 3,4 C 92 % 1036,5 hPa 0,0 mm 0,0 km/h (0 Bft) O-NO 77 2,2 C 0,0 km/h (0 Bft)
19.01.2022 09:32 3,4 C 92 % 1036,5 hPa 0,0 mm 0,0 km/h (0 Bft) O-NO 77 2,2 C 0,0 km/h (0 Bft)
19.01.2022 09:31 3,4 C 92 % 1036,5 hPa 0,0 mm 0,0 km/h (0 Bft) O-NO 77 2,2 C 0,0 km/h (0 Bft)
19.01.2022 09:30 3,3 C 92 % 1036,5 hPa 0,0 mm 0,0 km/h (0 Bft) O-NO 77 2,1 C 0,0 km/h (0 Bft)
19.01.2022 09:29 3,3 C 92 % 1036,5 hPa 0,0 mm 0,0 km/h (0 Bft) O-NO 76 2,1 C 0,0 km/h (0 Bft)
19.01.2022 09:28 3,2 C 92 % 1036,5 hPa 0,0 mm 0,0 km/h (0 Bft) O-NO 77 2,0 C 0,0 km/h (0 Bft)
19.01.2022 09:27 3,1 C 92 % 1036,5 hPa 0,0 mm 0,0 km/h (0 Bft) O-NO 77 1,9 C 0,0 km/h (0 Bft)
19.01.2022 09:26 2,9 C 92 % 1036,5 hPa 0,0 mm 0,0 km/h (0 Bft) O-NO 77 1,7 C 0,0 km/h (0 Bft)
19.01.2022 09:25 2,9 C 92 % 1036,5 hPa 0,0 mm 0,0 km/h (0 Bft) O-NO 76 1,7 C 0,0 km/h (0 Bft)
19.01.2022 09:24 2,8 C 92 % 1036,5 hPa 0,0 mm 0,0 km/h (0 Bft) O-NO 76 1,6 C 0,0 km/h (0 Bft)
19.01.2022 09:23 2,7 C 92 % 1036,5 hPa 0,0 mm 0,0 km/h (0 Bft) O-NO 77 1,5 C 0,0 km/h (0 Bft)
19.01.2022 09:22 2,6 C 92 % 1036,5 hPa 0,0 mm 0,0 km/h (0 Bft) O-NO 77 1,4 C 0,0 km/h (0 Bft)
19.01.2022 09:21 2,5 C 92 % 1036,5 hPa 0,0 mm 0,0 km/h (0 Bft) O-NO 76 1,3 C 0,0 km/h (0 Bft)
19.01.2022 09:20 2,4 C 92 % 1036,5 hPa 0,0 mm 0,0 km/h (0 Bft) O-NO 77 1,2 C 0,0 km/h (0 Bft)
19.01.2022 09:19 2,4 C 92 % 1036,5 hPa 0,0 mm 0,0 km/h (0 Bft) O-NO 76 1,2 C 0,0 km/h (0 Bft)
19.01.2022 09:18 2,2 C 92 % 1036,5 hPa 0,0 mm 0,0 km/h (0 Bft) O-NO 77 1,0 C 0,0 km/h (0 Bft)
19.01.2022 09:17 2,1 C 92 % 1036,5 hPa 0,0 mm 0,0 km/h (0 Bft) O-NO 76 0,9 C 0,0 km/h (0 Bft)
19.01.2022 09:16 2,0 C 92 % 1036,5 hPa 0,0 mm 0,0 km/h (0 Bft) O-NO 77 0,8 C 0,0 km/h (0 Bft)
19.01.2022 09:15 1,9 C 92 % 1036,5 hPa 0,0 mm 0,0 km/h (0 Bft) O-NO 76 0,7 C 0,0 km/h (0 Bft)
19.01.2022 09:14 1,8 C 92 % 1036,5 hPa 0,0 mm 0,0 km/h (0 Bft) O-NO 77 0,6 C 0,0 km/h (0 Bft)
19.01.2022 09:13 1,8 C 92 % 1036,5 hPa 0,0 mm 0,0 km/h (0 Bft) O-NO 77 0,6 C 0,0 km/h (0 Bft)
19.01.2022 09:12 1,7 C 92 % 1036,5 hPa 0,0 mm 0,0 km/h (0 Bft) O-NO 77 0,5 C 0,0 km/h (0 Bft)
19.01.2022 09:11 1,6 C 92 % 1036,5 hPa 0,0 mm 0,1 km/h (0 Bft) O-NO 77 0,4 C 2,4 km/h (1 Bft)
19.01.2022 09:10 1,6 C 92 % 1036,5 hPa 0,0 mm 0,0 km/h (0 Bft) O-NO 77 0,4 C 0,0 km/h (0 Bft)
19.01.2022 09:09 1,4 C 92 % 1036,5 hPa 0,0 mm 0,0 km/h (0 Bft) O-NO 77 0,2 C 0,0 km/h (0 Bft)
19.01.2022 09:08 1,3 C 92 % 1036,5 hPa 0,0 mm 0,0 km/h (0 Bft) O-NO 76 0,1 C 0,0 km/h (0 Bft)
19.01.2022 09:07 1,2 C 92 % 1036,5 hPa 0,0 mm 0,0 km/h (0 Bft) O-NO 76 0,0 C 0,0 km/h (0 Bft)
19.01.2022 09:06 1,1 C 92 % 1036,5 hPa 0,0 mm 0,0 km/h (0 Bft) O-NO 77 -0,1 C 0,0 km/h (0 Bft)
19.01.2022 09:05 1,0 C 92 % 1036,5 hPa 0,0 mm 0,0 km/h (0 Bft) O-NO 76 -0,2 C 0,0 km/h (0 Bft)
19.01.2022 09:04 0,8 C 92 % 1036,5 hPa 0,0 mm 0,0 km/h (0 Bft) O-NO 77 -0,3 C 0,0 km/h (0 Bft)
19.01.2022 09:03 0,7 C 92 % 1036,5 hPa 0,0 mm 0,0 km/h (0 Bft) O-NO 76 -0,4 C 0,0 km/h (0 Bft)
19.01.2022 09:02 0,6 C 92 % 1036,5 hPa 0,0 mm 0,0 km/h (0 Bft) O-NO 77 -0,5 C 0,0 km/h (0 Bft)
19.01.2022 09:00 0,4 C 91 % 1036,5 hPa 0,0 mm 0,0 km/h (0 Bft) O-NO 76 -0,9 C 0,0 km/h (0 Bft)
19.01.2022 08:59 0,4 C 91 % 1036,5 hPa 0,0 mm 0,0 km/h (0 Bft) O-NO 76 -0,9 C 0,0 km/h (0 Bft)
19.01.2022 08:58 0,3 C 91 % 1036,5 hPa 0,0 mm 0,0 km/h (0 Bft) O-NO 76 -1,0 C 0,0 km/h (0 Bft)
19.01.2022 08:57 0,3 C 91 % 1036,5 hPa 0,0 mm 0,0 km/h (0 Bft) O-NO 77 -1,0 C 0,0 km/h (0 Bft)
19.01.2022 08:56 0,2 C 91 % 1036,5 hPa 0,0 mm 0,0 km/h (0 Bft) O-NO 76 -1,1 C 0,0 km/h (0 Bft)
19.01.2022 08:55 0,2 C 91 % 1036,5 hPa 0,0 mm 0,0 km/h (0 Bft) O-NO 77 -1,1 C 0,0 km/h (0 Bft)
19.01.2022 08:54 0,1 C 91 % 1036,5 hPa 0,0 mm 0,0 km/h (0 Bft) O-NO 77 -1,2 C 0,0 km/h (0 Bft)
19.01.2022 08:53 0,1 C 91 % 1036,5 hPa 0,0 mm 0,1 km/h (0 Bft) O-NO 77 -1,2 C 2,4 km/h (1 Bft)
19.01.2022 08:52 0,0 C 91 % 1036,5 hPa 0,0 mm 0,1 km/h (0 Bft) O-NO 77 -1,3 C 2,4 km/h (1 Bft)
19.01.2022 08:51 -0,1 C 91 % 1036,5 hPa 0,0 mm 0,0 km/h (0 Bft) O-NO 77 -1,4 C 0,0 km/h (0 Bft)
19.01.2022 08:50 -0,1 C 91 % 1036,5 hPa 0,0 mm 0,0 km/h (0 Bft) O-NO 77 -1,4 C 0,0 km/h (0 Bft)
19.01.2022 08:49 -0,2 C 91 % 1036,5 hPa 0,0 mm 0,0 km/h (0 Bft) O-NO 78 -1,5 C 0,0 km/h (0 Bft)
19.01.2022 08:48 -0,2 C 91 % 1036,5 hPa 0,0 mm 0,0 km/h (0 Bft) O-NO 78 -1,5 C 0,0 km/h (0 Bft)
19.01.2022 08:47 -0,4 C 91 % 1036,5 hPa 0,0 mm 0,0 km/h (0 Bft) O-NO 77 -1,7 C 0,0 km/h (0 Bft)
19.01.2022 08:46 -0,4 C 91 % 1036,5 hPa 0,0 mm 0,0 km/h (0 Bft) O-NO 76 -1,7 C 0,0 km/h (0 Bft)
19.01.2022 08:45 -0,6 C 91 % 1036,5 hPa 0,0 mm 0,0 km/h (0 Bft) O-NO 76 -1,9 C 0,0 km/h (0 Bft)
19.01.2022 08:44 -0,7 C 92 % 1036,5 hPa 0,0 mm 0,0 km/h (0 Bft) O-NO 76 -1,8 C 0,0 km/h (0 Bft)
19.01.2022 08:43 -0,8 C 92 % 1036,5 hPa 0,0 mm 0,0 km/h (0 Bft) O-NO 76 -1,9 C 0,0 km/h (0 Bft)
19.01.2022 08:42 -0,8 C 92 % 1036,5 hPa 0,0 mm 0,0 km/h (0 Bft) O-NO 76 -1,9 C 0,0 km/h (0 Bft)
19.01.2022 08:41 -0,9 C 92 % 1036,5 hPa 0,0 mm 0,0 km/h (0 Bft) O-NO 77 -2,0 C 0,0 km/h (0 Bft)
19.01.2022 08:40 -0,9 C 92 % 1036,5 hPa 0,0 mm 0,0 km/h (0 Bft) O-NO 76 -2,0 C 0,0 km/h (0 Bft)
19.01.2022 08:39 -0,9 C 92 % 1036,5 hPa 0,0 mm 0,0 km/h (0 Bft) O-NO 76 -2,0 C 0,0 km/h (0 Bft)
19.01.2022 08:38 -1,0 C 92 % 1036,5 hPa 0,0 mm 0,1 km/h (0 Bft) O-NO 76 -2,1 C 2,4 km/h (1 Bft)
19.01.2022 08:37 -1,1 C 92 % 1036,5 hPa 0,0 mm 0,1 km/h (0 Bft) O-NO 76 -2,2 C 2,4 km/h (1 Bft)
19.01.2022 08:36 -1,1 C 92 % 1036,5 hPa 0,0 mm 0,0 km/h (0 Bft) O-NO 76 -2,2 C 0,0 km/h (0 Bft)
19.01.2022 08:35 -1,1 C 92 % 1036,5 hPa 0,0 mm 0,1 km/h (0 Bft) O-NO 76 -2,2 C 2,4 km/h (1 Bft)
19.01.2022 08:34 -1,1 C 92 % 1036,5 hPa 0,0 mm 0,1 km/h (0 Bft) O-NO 76 -2,2 C 2,4 km/h (1 Bft)
19.01.2022 08:33 -1,2 C 92 % 1036,5 hPa 0,0 mm 0,2 km/h (0 Bft) O-NO 77 -2,3 C 2,4 km/h (1 Bft)
19.01.2022 08:32 -1,2 C 92 % 1036,5 hPa 0,0 mm 0,1 km/h (0 Bft) O-NO 77 -2,3 C 2,4 km/h (1 Bft)
19.01.2022 08:31 -1,2 C 92 % 1036,5 hPa 0,0 mm 0,0 km/h (0 Bft) O-NO 77 -2,3 C 0,0 km/h (0 Bft)
19.01.2022 08:30 -1,2 C 92 % 1036,5 hPa 0,0 mm 0,1 km/h (0 Bft) O-NO 78 -2,3 C 2,4 km/h (1 Bft)
19.01.2022 08:29 -1,2 C 92 % 1036,5 hPa 0,0 mm 0,0 km/h (0 Bft) O 79 -2,3 C 0,0 km/h (0 Bft)
19.01.2022 08:28 -1,2 C 92 % 1036,5 hPa 0,0 mm 0,1 km/h (0 Bft) O 79 -2,3 C 2,4 km/h (1 Bft)
19.01.2022 08:27 -1,2 C 92 % 1036,5 hPa 0,0 mm 0,0 km/h (0 Bft) O 79 -2,3 C 0,0 km/h (0 Bft)
19.01.2022 08:26 -1,2 C 92 % 1036,5 hPa 0,0 mm 0,0 km/h (0 Bft) O 79 -2,3 C 0,0 km/h (0 Bft)
19.01.2022 08:25 -1,3 C 92 % 1036,5 hPa 0,0 mm 0,0 km/h (0 Bft) O 79 -2,4 C 0,0 km/h (0 Bft)
19.01.2022 08:24 -1,3 C 92 % 1036,5 hPa 0,0 mm 0,0 km/h (0 Bft) O 79 -2,4 C 0,0 km/h (0 Bft)
19.01.2022 08:23 -1,3 C 92 % 1036,5 hPa 0,0 mm 0,0 km/h (0 Bft) O 79 -2,4 C 0,0 km/h (0 Bft)
19.01.2022 08:22 -1,3 C 92 % 1036,5 hPa 0,0 mm 0,0 km/h (0 Bft) O 79 -2,4 C 0,0 km/h (0 Bft)
19.01.2022 08:21 -1,3 C 92 % 1036,5 hPa 0,0 mm 0,0 km/h (0 Bft) O 79 -2,4 C 0,0 km/h (0 Bft)
19.01.2022 08:20 -1,3 C 92 % 1036,5 hPa 0,0 mm 0,0 km/h (0 Bft) O 79 -2,4 C 0,0 km/h (0 Bft)
19.01.2022 08:19 -1,3 C 92 % 1036,5 hPa 0,0 mm 0,0 km/h (0 Bft) O 79 -2,4 C 0,0 km/h (0 Bft)
19.01.2022 08:18 -1,4 C 92 % 1036,5 hPa 0,0 mm 0,0 km/h (0 Bft) O 79 -2,5 C 0,0 km/h (0 Bft)
19.01.2022 08:17 -1,4 C 92 % 1036,5 hPa 0,0 mm 0,0 km/h (0 Bft) O 79 -2,5 C 0,0 km/h (0 Bft)
19.01.2022 08:16 -1,4 C 92 % 1036,5 hPa 0,0 mm 0,0 km/h (0 Bft) O 79 -2,5 C 0,0 km/h (0 Bft)
19.01.2022 08:15 -1,4 C 92 % 1036,5 hPa 0,0 mm 0,0 km/h (0 Bft) O 79 -2,5 C 0,0 km/h (0 Bft)
19.01.2022 08:14 -1,4 C 92 % 1036,5 hPa 0,0 mm 0,0 km/h (0 Bft) O 79 -2,5 C 0,0 km/h (0 Bft)
19.01.2022 08:13 -1,4 C 92 % 1036,5 hPa 0,0 mm 0,0 km/h (0 Bft) O 79 -2,5 C 0,0 km/h (0 Bft)
19.01.2022 08:12 -1,4 C 92 % 1036,5 hPa 0,0 mm 0,0 km/h (0 Bft) O 79 -2,5 C 0,0 km/h (0 Bft)
19.01.2022 08:11 -1,4 C 92 % 1036,5 hPa 0,0 mm 0,0 km/h (0 Bft) O 79 -2,5 C 0,0 km/h (0 Bft)
19.01.2022 08:10 -1,4 C 92 % 1036,5 hPa 0,0 mm 0,0 km/h (0 Bft) O 79 -2,5 C 0,0 km/h (0 Bft)
19.01.2022 08:09 -1,4 C 92 % 1036,5 hPa 0,0 mm 0,0 km/h (0 Bft) O 79 -2,5 C 0,0 km/h (0 Bft)
19.01.2022 08:08 -1,3 C 92 % 1036,5 hPa 0,0 mm 0,0 km/h (0 Bft) O 79 -2,4 C 0,0 km/h (0 Bft)
19.01.2022 08:07 -1,3 C 92 % 1036,5 hPa 0,0 mm 0,0 km/h (0 Bft) O 79 -2,4 C 0,0 km/h (0 Bft)
19.01.2022 08:06 -1,3 C 92 % 1036,5 hPa 0,0 mm 0,0 km/h (0 Bft) O 79 -2,4 C 0,0 km/h (0 Bft)
19.01.2022 08:05 -1,3 C 92 % 1036,5 hPa 0,0 mm 0,0 km/h (0 Bft) O 79 -2,4 C 0,0 km/h (0 Bft)
19.01.2022 08:04 -1,3 C 92 % 1036,5 hPa 0,0 mm 0,0 km/h (0 Bft) O 79 -2,4 C 0,0 km/h (0 Bft)
19.01.2022 08:03 -1,3 C 92 % 1036,5 hPa 0,0 mm 0,0 km/h (0 Bft) O 79 -2,4 C 0,0 km/h (0 Bft)
19.01.2022 08:02 -1,3 C 92 % 1036,5 hPa 0,0 mm 0,0 km/h (0 Bft) O 79 -2,4 C 0,0 km/h (0 Bft)
19.01.2022 08:00 -1,3 C 92 % 1036,5 hPa 0,0 mm 0,0 km/h (0 Bft) O 79 -2,4 C 0,0 km/h (0 Bft)
19.01.2022 07:59 -1,3 C 92 % 1036,5 hPa 0,0 mm 0,0 km/h (0 Bft) O 79 -2,4 C 0,0 km/h (0 Bft)
19.01.2022 07:58 -1,3 C 92 % 1036,5 hPa 0,0 mm 0,0 km/h (0 Bft) O 79 -2,4 C 0,0 km/h (0 Bft)
19.01.2022 07:57 -1,3 C 92 % 1036,5 hPa 0,0 mm 0,0 km/h (0 Bft) O 79 -2,4 C 0,0 km/h (0 Bft)
19.01.2022 07:56 -1,3 C 92 % 1036,5 hPa 0,0 mm 0,0 km/h (0 Bft) O 79 -2,4 C 0,0 km/h (0 Bft)
19.01.2022 07:55 -1,3 C 92 % 1036,5 hPa 0,0 mm 0,1 km/h (0 Bft) O 79 -2,4 C 2,4 km/h (1 Bft)
19.01.2022 07:54 -1,3 C 92 % 1036,5 hPa 0,0 mm 0,0 km/h (0 Bft) O 79 -2,4 C 0,0 km/h (0 Bft)
19.01.2022 07:53 -1,3 C 92 % 1036,5 hPa 0,0 mm 0,0 km/h (0 Bft) O 79 -2,4 C 0,0 km/h (0 Bft)
19.01.2022 07:52 -1,3 C 92 % 1036,5 hPa 0,0 mm 0,0 km/h (0 Bft) O 79 -2,4 C 0,0 km/h (0 Bft)
19.01.2022 07:51 -1,3 C 92 % 1036,5 hPa 0,0 mm 0,0 km/h (0 Bft) O 79 -2,4 C 0,0 km/h (0 Bft)
19.01.2022 07:50 -1,3 C 92 % 1036,5 hPa 0,0 mm 0,0 km/h (0 Bft) O 79 -2,4 C 0,0 km/h (0 Bft)
19.01.2022 07:49 -1,2 C 92 % 1036,5 hPa 0,0 mm 0,0 km/h (0 Bft) O 79 -2,3 C 0,0 km/h (0 Bft)
19.01.2022 07:48 -1,2 C 92 % 1036,5 hPa 0,0 mm 0,0 km/h (0 Bft) O 79 -2,3 C 0,0 km/h (0 Bft)
19.01.2022 07:47 -1,2 C 92 % 1036,5 hPa 0,0 mm 0,0 km/h (0 Bft) O 79 -2,3 C 0,0 km/h (0 Bft)
19.01.2022 07:46 -1,2 C 92 % 1036,5 hPa 0,0 mm 0,1 km/h (0 Bft) O 79 -2,3 C 2,4 km/h (1 Bft)
19.01.2022 07:45 -1,2 C 92 % 1036,5 hPa 0,0 mm 0,0 km/h (0 Bft) O 79 -2,3 C 0,0 km/h (0 Bft)
19.01.2022 07:44 -1,2 C 92 % 1036,5 hPa 0,0 mm 0,0 km/h (0 Bft) NO 51 -2,3 C 0,0 km/h (0 Bft)
19.01.2022 07:43 -1,2 C 92 % 1036,5 hPa 0,0 mm 0,0 km/h (0 Bft) O-NO 64 -2,3 C 0,0 km/h (0 Bft)
19.01.2022 07:42 -1,2 C 92 % 1036,5 hPa 0,0 mm 0,0 km/h (0 Bft) O-NO 63 -2,3 C 0,0 km/h (0 Bft)
19.01.2022 07:41 -1,1 C 92 % 1036,5 hPa 0,0 mm 0,0 km/h (0 Bft) O-NO 64 -2,2 C 0,0 km/h (0 Bft)
19.01.2022 07:40 -1,1 C 92 % 1036,5 hPa 0,0 mm 0,0 km/h (0 Bft) O-NO 63 -2,2 C 0,0 km/h (0 Bft)
19.01.2022 07:39 -1,1 C 92 % 1036,5 hPa 0,0 mm 0,0 km/h (0 Bft) O-NO 64 -2,2 C 0,0 km/h (0 Bft)
19.01.2022 07:38 -1,1 C 92 % 1036,5 hPa 0,0 mm 0,0 km/h (0 Bft) O-NO 63 -2,2 C 0,0 km/h (0 Bft)
19.01.2022 07:37 -1,1 C 92 % 1036,5 hPa 0,0 mm 0,0 km/h (0 Bft) O-NO 64 -2,2 C 0,0 km/h (0 Bft)
19.01.2022 07:36 -1,0 C 92 % 1036,5 hPa 0,0 mm 0,0 km/h (0 Bft) O-NO 64 -2,1 C 0,0 km/h (0 Bft)
19.01.2022 07:35 -1,0 C 92 % 1036,5 hPa 0,0 mm 0,0 km/h (0 Bft) O-NO 64 -2,1 C 0,0 km/h (0 Bft)
19.01.2022 07:34 -1,0 C 92 % 1036,5 hPa 0,0 mm 0,0 km/h (0 Bft) O-NO 64 -2,1 C 0,0 km/h (0 Bft)
19.01.2022 07:33 -1,0 C 92 % 1036,5 hPa 0,0 mm 0,0 km/h (0 Bft) O-NO 63 -2,1 C 0,0 km/h (0 Bft)
19.01.2022 07:32 -0,9 C 92 % 1036,5 hPa 0,0 mm 0,0 km/h (0 Bft) O-NO 64 -2,0 C 0,0 km/h (0 Bft)
19.01.2022 07:31 -0,9 C 92 % 1036,5 hPa 0,0 mm 0,0 km/h (0 Bft) O-NO 64 -2,0 C 0,0 km/h (0 Bft)
19.01.2022 07:30 -0,9 C 92 % 1036,5 hPa 0,0 mm 0,0 km/h (0 Bft) O-NO 63 -2,0 C 0,0 km/h (0 Bft)
19.01.2022 07:29 -0,9 C 92 % 1036,5 hPa 0,0 mm 0,0 km/h (0 Bft) O-NO 65 -2,0 C 0,0 km/h (0 Bft)
19.01.2022 07:28 -0,9 C 92 % 1036,5 hPa 0,0 mm 0,1 km/h (0 Bft) O-NO 65 -2,0 C 2,4 km/h (1 Bft)
19.01.2022 07:27 -0,9 C 92 % 1036,5 hPa 0,0 mm 0,0 km/h (0 Bft) O-NO 65 -2,0 C 0,0 km/h (0 Bft)
19.01.2022 07:26 -0,9 C 92 % 1036,5 hPa 0,0 mm 0,4 km/h (0 Bft) O-NO 67 -2,0 C 2,4 km/h (1 Bft)
19.01.2022 07:25 -0,9 C 92 % 1036,5 hPa 0,0 mm 0,0 km/h (0 Bft) O-NO 66 -2,0 C 0,0 km/h (0 Bft)
19.01.2022 07:24 -0,9 C 92 % 1036,5 hPa 0,0 mm 0,1 km/h (0 Bft) O-NO 66 -2,0 C 2,4 km/h (1 Bft)
19.01.2022 07:23 -0,9 C 92 % 1036,5 hPa 0,0 mm 0,1 km/h (0 Bft) O-NO 67 -2,0 C 2,4 km/h (1 Bft)
19.01.2022 07:22 -0,9 C 92 % 1036,5 hPa 0,0 mm 0,1 km/h (0 Bft) O-NO 66 -2,0 C 2,4 km/h (1 Bft)
19.01.2022 07:21 -0,9 C 92 % 1036,5 hPa 0,0 mm 0,0 km/h (0 Bft) O-NO 67 -2,0 C 0,0 km/h (0 Bft)
19.01.2022 07:20 -0,9 C 92 % 1036,5 hPa 0,0 mm 0,1 km/h (0 Bft) O-NO 67 -2,0 C 2,4 km/h (1 Bft)
19.01.2022 07:19 -0,9 C 92 % 1036,5 hPa 0,0 mm 0,0 km/h (0 Bft) O-NO 66 -2,0 C 0,0 km/h (0 Bft)
19.01.2022 07:18 -0,9 C 92 % 1036,5 hPa 0,0 mm 0,0 km/h (0 Bft) O-NO 67 -2,0 C 0,0 km/h (0 Bft)
19.01.2022 07:17 -0,9 C 92 % 1036,5 hPa 0,0 mm 0,0 km/h (0 Bft) O-NO 67 -2,0 C 0,0 km/h (0 Bft)
19.01.2022 07:16 -0,9 C 92 % 1036,5 hPa 0,0 mm 0,1 km/h (0 Bft) O-NO 67 -2,0 C 2,4 km/h (1 Bft)
19.01.2022 07:15 -0,9 C 92 % 1036,5 hPa 0,0 mm 0,0 km/h (0 Bft) O-NO 66 -2,0 C 0,0 km/h (0 Bft)
19.01.2022 07:14 -0,9 C 92 % 1036,5 hPa 0,0 mm 0,0 km/h (0 Bft) O-NO 66 -2,0 C 0,0 km/h (0 Bft)
19.01.2022 07:13 -0,9 C 92 % 1036,5 hPa 0,0 mm 0,0 km/h (0 Bft) O-NO 67 -2,0 C 0,0 km/h (0 Bft)
19.01.2022 07:12 -0,9 C 92 % 1036,5 hPa 0,0 mm 0,0 km/h (0 Bft) O-NO 67 -2,0 C 0,0 km/h (0 Bft)
19.01.2022 07:11 -0,9 C 92 % 1036,5 hPa 0,0 mm 0,0 km/h (0 Bft) O-NO 67 -2,0 C 0,0 km/h (0 Bft)
19.01.2022 07:10 -0,8 C 92 % 1036,5 hPa 0,0 mm 0,0 km/h (0 Bft) O-NO 66 -1,9 C 0,0 km/h (0 Bft)
19.01.2022 07:09 -0,8 C 92 % 1036,5 hPa 0,0 mm 0,0 km/h (0 Bft) O-NO 66 -1,9 C 0,0 km/h (0 Bft)
19.01.2022 07:08 -0,8 C 92 % 1036,5 hPa 0,0 mm 0,0 km/h (0 Bft) O-NO 67 -1,9 C 0,0 km/h (0 Bft)
19.01.2022 07:07 -0,8 C 92 % 1036,5 hPa 0,0 mm 0,0 km/h (0 Bft) O-NO 67 -1,9 C 0,0 km/h (0 Bft)
19.01.2022 07:06 -0,8 C 92 % 1036,5 hPa 0,0 mm 0,0 km/h (0 Bft) O-NO 67 -1,9 C 0,0 km/h (0 Bft)
19.01.2022 07:05 -0,8 C 92 % 1036,5 hPa 0,0 mm 0,0 km/h (0 Bft) O-NO 66 -1,9 C 0,0 km/h (0 Bft)
19.01.2022 07:04 -0,8 C 92 % 1036,5 hPa 0,0 mm 0,0 km/h (0 Bft) O-NO 66 -1,9 C 0,0 km/h (0 Bft)
19.01.2022 07:03 -0,8 C 92 % 1036,5 hPa 0,0 mm 0,0 km/h (0 Bft) O-NO 66 -1,9 C 0,0 km/h (0 Bft)
19.01.2022 07:02 -0,8 C 92 % 1036,5 hPa 0,0 mm 0,0 km/h (0 Bft) O-NO 67 -1,9 C 0,0 km/h (0 Bft)
19.01.2022 07:00 -0,8 C 92 % 1036,5 hPa 0,0 mm 0,0 km/h (0 Bft) O-NO 66 -1,9 C 0,0 km/h (0 Bft)
19.01.2022 06:59 -0,8 C 92 % 1036,5 hPa 0,0 mm 0,0 km/h (0 Bft) O-NO 66 -1,9 C 0,0 km/h (0 Bft)
19.01.2022 06:58 -0,8 C 92 % 1036,5 hPa 0,0 mm 0,0 km/h (0 Bft) O-NO 66 -1,9 C 0,0 km/h (0 Bft)
19.01.2022 06:57 -0,8 C 92 % 1036,5 hPa 0,0 mm 0,0 km/h (0 Bft) O-NO 67 -1,9 C 0,0 km/h (0 Bft)
19.01.2022 06:56 -0,8 C 92 % 1036,5 hPa 0,0 mm 0,0 km/h (0 Bft) O-NO 66 -1,9 C 0,0 km/h (0 Bft)
19.01.2022 06:55 -0,8 C 92 % 1036,5 hPa 0,0 mm 0,0 km/h (0 Bft) O-NO 67 -1,9 C 0,0 km/h (0 Bft)
19.01.2022 06:54 -0,8 C 92 % 1036,5 hPa 0,0 mm 0,0 km/h (0 Bft) O-NO 67 -1,9 C 0,0 km/h (0 Bft)
19.01.2022 06:53 -0,8 C 93 % 1036,5 hPa 0,0 mm 0,0 km/h (0 Bft) O-NO 67 -1,8 C 0,0 km/h (0 Bft)
19.01.2022 06:52 -0,8 C 93 % 1036,5 hPa 0,0 mm 0,0 km/h (0 Bft) O-NO 67 -1,8 C 0,0 km/h (0 Bft)
19.01.2022 06:51 -0,8 C 93 % 1036,5 hPa 0,0 mm 0,0 km/h (0 Bft) O-NO 67 -1,8 C 0,0 km/h (0 Bft)
19.01.2022 06:50 -0,9 C 93 % 1036,5 hPa 0,0 mm 0,0 km/h (0 Bft) O-NO 67 -1,9 C 0,0 km/h (0 Bft)
19.01.2022 06:49 -0,9 C 93 % 1036,5 hPa 0,0 mm 0,0 km/h (0 Bft) O-NO 67 -1,9 C 0,0 km/h (0 Bft)
19.01.2022 06:48 -0,9 C 93 % 1036,5 hPa 0,0 mm 0,0 km/h (0 Bft) O-NO 66 -1,9 C 0,0 km/h (0 Bft)
19.01.2022 06:47 -0,8 C 93 % 1036,5 hPa 0,0 mm 0,0 km/h (0 Bft) O-NO 67 -1,8 C 0,0 km/h (0 Bft)
19.01.2022 06:46 -0,8 C 93 % 1036,5 hPa 0,0 mm 0,0 km/h (0 Bft) O-NO 66 -1,8 C 0,0 km/h (0 Bft)
19.01.2022 06:45 -0,8 C 93 % 1036,5 hPa 0,0 mm 0,0 km/h (0 Bft) O-NO 67 -1,8 C 0,0 km/h (0 Bft)
19.01.2022 06:44 -0,7 C 93 % 1036,5 hPa 0,0 mm 0,0 km/h (0 Bft) O-NO 67 -1,7 C 0,0 km/h (0 Bft)
19.01.2022 06:43 -0,7 C 93 % 1036,5 hPa 0,0 mm 0,0 km/h (0 Bft) O-NO 67 -1,7 C 0,0 km/h (0 Bft)
19.01.2022 06:42 -0,7 C 92 % 1036,5 hPa 0,0 mm 0,0 km/h (0 Bft) O-NO 66 -1,8 C 0,0 km/h (0 Bft)
19.01.2022 06:41 -0,7 C 92 % 1036,5 hPa 0,0 mm 0,0 km/h (0 Bft) O-NO 66 -1,8 C 0,0 km/h (0 Bft)
19.01.2022 06:40 -0,7 C 92 % 1036,5 hPa 0,0 mm 0,0 km/h (0 Bft) O-NO 66 -1,8 C 0,0 km/h (0 Bft)
19.01.2022 06:39 -0,6 C 92 % 1036,5 hPa 0,0 mm 0,0 km/h (0 Bft) O-NO 66 -1,7 C 0,0 km/h (0 Bft)
19.01.2022 06:38 -0,6 C 92 % 1036,5 hPa 0,0 mm 0,0 km/h (0 Bft) O-NO 67 -1,7 C 0,0 km/h (0 Bft)
19.01.2022 06:37 -0,6 C 92 % 1036,5 hPa 0,0 mm 0,0 km/h (0 Bft) O-NO 67 -1,7 C 0,0 km/h (0 Bft)
19.01.2022 06:36 -0,6 C 92 % 1036,5 hPa 0,0 mm 0,0 km/h (0 Bft) O-NO 67 -1,7 C 0,0 km/h (0 Bft)
19.01.2022 06:35 -0,7 C 92 % 1036,5 hPa 0,0 mm 0,0 km/h (0 Bft) O-NO 67 -1,8 C 0,0 km/h (0 Bft)
19.01.2022 06:34 -0,7 C 93 % 1036,5 hPa 0,0 mm 0,1 km/h (0 Bft) O-NO 67 -1,7 C 2,4 km/h (1 Bft)
19.01.2022 06:33 -0,8 C 93 % 1036,5 hPa 0,0 mm 0,5 km/h (0 Bft) O 93 -1,8 C 2,4 km/h (1 Bft)
19.01.2022 06:32 -0,8 C 93 % 1036,5 hPa 0,0 mm 0,0 km/h (0 Bft) S 170 -1,8 C 0,0 km/h (0 Bft)
19.01.2022 06:31 -0,8 C 93 % 1036,5 hPa 0,0 mm 0,0 km/h (0 Bft) S 172 -1,8 C 0,0 km/h (0 Bft)
19.01.2022 06:30 -0,8 C 93 % 1036,5 hPa 0,0 mm 0,0 km/h (0 Bft) S 172 -1,8 C 0,0 km/h (0 Bft)
19.01.2022 06:29 -0,8 C 93 % 1036,5 hPa 0,0 mm 0,0 km/h (0 Bft) S 174 -1,8 C 0,0 km/h (0 Bft)
19.01.2022 06:28 -0,9 C 93 % 1036,5 hPa 0,0 mm 0,0 km/h (0 Bft) S 174 -1,9 C 0,0 km/h (0 Bft)
19.01.2022 06:27 -0,9 C 93 % 1036,5 hPa 0,0 mm 0,0 km/h (0 Bft) S 175 -1,9 C 0,0 km/h (0 Bft)
19.01.2022 06:26 -0,9 C 93 % 1036,5 hPa 0,0 mm 0,0 km/h (0 Bft) S 174 -1,9 C 0,0 km/h (0 Bft)
19.01.2022 06:25 -0,9 C 93 % 1036,5 hPa 0,0 mm 0,0 km/h (0 Bft) S 174 -1,9 C 0,0 km/h (0 Bft)
19.01.2022 06:24 -0,9 C 93 % 1036,5 hPa 0,0 mm 0,0 km/h (0 Bft) S 174 -1,9 C 0,0 km/h (0 Bft)
19.01.2022 06:23 -0,9 C 93 % 1036,5 hPa 0,0 mm 0,0 km/h (0 Bft) S 174 -1,9 C 0,0 km/h (0 Bft)
19.01.2022 06:22 -0,9 C 93 % 1036,5 hPa 0,0 mm 0,0 km/h (0 Bft) S 174 -1,9 C 0,0 km/h (0 Bft)
19.01.2022 06:21 -0,8 C 93 % 1036,5 hPa 0,0 mm 0,0 km/h (0 Bft) S 174 -1,8 C 0,0 km/h (0 Bft)
19.01.2022 06:20 -0,9 C 93 % 1036,5 hPa 0,0 mm 0,0 km/h (0 Bft) S 174 -1,9 C 0,0 km/h (0 Bft)
19.01.2022 06:19 -0,8 C 93 % 1036,5 hPa 0,0 mm 0,0 km/h (0 Bft) S 174 -1,8 C 0,0 km/h (0 Bft)
19.01.2022 06:18 -0,8 C 93 % 1036,5 hPa 0,0 mm 0,0 km/h (0 Bft) S 175 -1,8 C 0,0 km/h (0 Bft)
19.01.2022 06:17 -0,8 C 93 % 1036,5 hPa 0,0 mm 0,0 km/h (0 Bft) S 174 -1,8 C 0,0 km/h (0 Bft)
19.01.2022 06:16 -0,8 C 93 % 1036,5 hPa 0,0 mm 0,0 km/h (0 Bft) S 174 -1,8 C 0,0 km/h (0 Bft)
19.01.2022 06:15 -0,8 C 93 % 1036,5 hPa 0,0 mm 0,0 km/h (0 Bft) S 174 -1,8 C 0,0 km/h (0 Bft)
19.01.2022 06:14 -0,8 C 92 % 1036,5 hPa 0,0 mm 0,0 km/h (0 Bft) S 174 -1,9 C 0,0 km/h (0 Bft)
19.01.2022 06:13 -0,8 C 92 % 1036,5 hPa 0,0 mm 0,0 km/h (0 Bft) S 174 -1,9 C 0,0 km/h (0 Bft)
19.01.2022 06:12 -0,8 C 92 % 1036,5 hPa 0,0 mm 0,0 km/h (0 Bft) S 174 -1,9 C 0,0 km/h (0 Bft)
19.01.2022 06:11 -0,8 C 93 % 1036,5 hPa 0,0 mm 0,0 km/h (0 Bft) S 174 -1,8 C 0,0 km/h (0 Bft)
19.01.2022 06:10 -0,8 C 93 % 1036,5 hPa 0,0 mm 0,0 km/h (0 Bft) S 174 -1,8 C 0,0 km/h (0 Bft)
19.01.2022 06:09 -0,7 C 92 % 1036,5 hPa 0,0 mm 0,0 km/h (0 Bft) S 174 -1,8 C 0,0 km/h (0 Bft)
19.01.2022 06:08 -0,7 C 92 % 1036,5 hPa 0,0 mm 0,0 km/h (0 Bft) S 174 -1,8 C 0,0 km/h (0 Bft)
19.01.2022 06:07 -0,7 C 92 % 1036,5 hPa 0,0 mm 0,0 km/h (0 Bft) S 174 -1,8 C 0,0 km/h (0 Bft)
19.01.2022 06:06 -0,7 C 92 % 1036,5 hPa 0,0 mm 0,0 km/h (0 Bft) S 174 -1,8 C 0,0 km/h (0 Bft)
19.01.2022 06:05 -0,7 C 92 % 1036,5 hPa 0,0 mm 0,0 km/h (0 Bft) S 174 -1,8 C 0,0 km/h (0 Bft)
19.01.2022 06:04 -0,6 C 92 % 1036,5 hPa 0,0 mm 0,0 km/h (0 Bft) S 174 -1,7 C 0,0 km/h (0 Bft)
19.01.2022 06:03 -0,6 C 92 % 1036,5 hPa 0,0 mm 0,0 km/h (0 Bft) S 174 -1,7 C 0,0 km/h (0 Bft)
19.01.2022 06:02 -0,6 C 92 % 1036,5 hPa 0,0 mm 0,0 km/h (0 Bft) S 174 -1,7 C 0,0 km/h (0 Bft)
19.01.2022 06:00 -0,6 C 92 % 1036,5 hPa 0,0 mm 0,0 km/h (0 Bft) S 175 -1,7 C 0,0 km/h (0 Bft)
19.01.2022 05:59 -0,6 C 92 % 1036,5 hPa 0,0 mm 0,0 km/h (0 Bft) S 174 -1,7 C 0,0 km/h (0 Bft)
19.01.2022 05:57 -0,5 C 92 % 1036,5 hPa 0,0 mm 0,0 km/h (0 Bft) S 174 -1,6 C 0,0 km/h (0 Bft)
19.01.2022 05:55 -0,5 C 92 % 1036,5 hPa 0,0 mm 0,0 km/h (0 Bft) S 175 -1,6 C 0,0 km/h (0 Bft)
19.01.2022 05:54 -0,5 C 92 % 1036,5 hPa 0,0 mm 0,0 km/h (0 Bft) S 174 -1,6 C 0,0 km/h (0 Bft)
19.01.2022 05:53 -0,5 C 92 % 1036,5 hPa 0,0 mm 0,0 km/h (0 Bft) S 175 -1,6 C 0,0 km/h (0 Bft)
19.01.2022 05:52 -0,5 C 92 % 1036,5 hPa 0,0 mm 0,0 km/h (0 Bft) S 174 -1,6 C 0,0 km/h (0 Bft)
19.01.2022 05:51 -0,5 C 92 % 1036,5 hPa 0,0 mm 0,0 km/h (0 Bft) S 174 -1,6 C 0,0 km/h (0 Bft)
19.01.2022 05:50 -0,4 C 92 % 1036,5 hPa 0,0 mm 0,0 km/h (0 Bft) S 174 -1,5 C 0,0 km/h (0 Bft)
19.01.2022 05:49 -0,4 C 92 % 1036,5 hPa 0,0 mm 0,0 km/h (0 Bft) S 175 -1,5 C 0,0 km/h (0 Bft)
19.01.2022 05:48 -0,4 C 92 % 1036,5 hPa 0,0 mm 0,0 km/h (0 Bft) S 174 -1,5 C 0,0 km/h (0 Bft)
19.01.2022 05:47 -0,4 C 92 % 1036,5 hPa 0,0 mm 0,0 km/h (0 Bft) S 174 -1,5 C 0,0 km/h (0 Bft)
19.01.2022 05:46 -0,3 C 92 % 1036,5 hPa 0,0 mm 0,0 km/h (0 Bft) S 174 -1,4 C 0,0 km/h (0 Bft)
19.01.2022 05:45 -0,3 C 92 % 1036,5 hPa 0,0 mm 0,0 km/h (0 Bft) S 174 -1,4 C 0,0 km/h (0 Bft)
19.01.2022 05:44 -0,2 C 92 % 1036,5 hPa 0,0 mm 0,0 km/h (0 Bft) S 174 -1,3 C 0,0 km/h (0 Bft)
19.01.2022 05:43 -0,2 C 92 % 1036,5 hPa 0,0 mm 0,0 km/h (0 Bft) S 175 -1,3 C 0,0 km/h (0 Bft)
19.01.2022 05:42 -0,2 C 92 % 1036,5 hPa 0,0 mm 0,0 km/h (0 Bft) S 174 -1,3 C 0,0 km/h (0 Bft)
19.01.2022 05:41 -0,2 C 92 % 1036,5 hPa 0,0 mm 0,0 km/h (0 Bft) S 174 -1,3 C 0,0 km/h (0 Bft)
19.01.2022 05:40 -0,1 C 92 % 1036,5 hPa 0,0 mm 0,0 km/h (0 Bft) S 174 -1,2 C 0,0 km/h (0 Bft)
19.01.2022 05:39 -0,1 C 92 % 1036,5 hPa 0,0 mm 0,0 km/h (0 Bft) S 175 -1,2 C 0,0 km/h (0 Bft)
19.01.2022 05:38 -0,1 C 92 % 1036,5 hPa 0,0 mm 0,0 km/h (0 Bft) S 174 -1,2 C 0,0 km/h (0 Bft)
19.01.2022 05:37 -0,1 C 92 % 1036,5 hPa 0,0 mm 0,0 km/h (0 Bft) S 174 -1,2 C 0,0 km/h (0 Bft)
19.01.2022 05:36 -0,1 C 92 % 1036,5 hPa 0,0 mm 0,0 km/h (0 Bft) S 174 -1,2 C 0,0 km/h (0 Bft)
19.01.2022 05:35 -0,1 C 92 % 1036,5 hPa 0,0 mm 0,0 km/h (0 Bft) S 175 -1,2 C 0,0 km/h (0 Bft)
19.01.2022 05:34 0,0 C 92 % 1036,5 hPa 0,0 mm 0,0 km/h (0 Bft) S 175 -1,1 C 0,0 km/h (0 Bft)
19.01.2022 05:33 0,0 C 92 % 1036,5 hPa 0,0 mm 0,0 km/h (0 Bft) S 175 -1,1 C 0,0 km/h (0 Bft)
19.01.2022 05:32 0,1 C 92 % 1036,5 hPa 0,0 mm 0,0 km/h (0 Bft) S 174 -1,0 C 0,0 km/h (0 Bft)
19.01.2022 05:31 0,1 C 92 % 1036,5 hPa 0,0 mm 0,0 km/h (0 Bft) S 174 -1,0 C 0,0 km/h (0 Bft)
19.01.2022 05:30 0,2 C 92 % 1036,5 hPa 0,0 mm 0,0 km/h (0 Bft) S 174 -0,9 C 0,0 km/h (0 Bft)
19.01.2022 05:29 0,2 C 92 % 1036,5 hPa 0,0 mm 0,0 km/h (0 Bft) S 174 -0,9 C 0,0 km/h (0 Bft)
19.01.2022 05:28 0,3 C 92 % 1036,5 hPa 0,0 mm 0,0 km/h (0 Bft) S 175 -0,8 C 0,0 km/h (0 Bft)
19.01.2022 05:27 0,3 C 92 % 1036,5 hPa 0,0 mm 0,0 km/h (0 Bft) S 175 -0,8 C 0,0 km/h (0 Bft)
19.01.2022 05:26 0,4 C 92 % 1036,5 hPa 0,0 mm 0,0 km/h (0 Bft) S 174 -0,7 C 0,0 km/h (0 Bft)
19.01.2022 05:25 0,4 C 92 % 1036,5 hPa 0,0 mm 0,0 km/h (0 Bft) S 174 -0,7 C 0,0 km/h (0 Bft)
19.01.2022 05:24 0,5 C 92 % 1036,5 hPa 0,0 mm 0,0 km/h (0 Bft) S 175 -0,6 C 0,0 km/h (0 Bft)
19.01.2022 05:23 0,6 C 92 % 1036,5 hPa 0,0 mm 0,0 km/h (0 Bft) S 174 -0,5 C 0,0 km/h (0 Bft)
19.01.2022 05:22 0,6 C 92 % 1036,5 hPa 0,0 mm 0,0 km/h (0 Bft) S 175 -0,5 C 0,0 km/h (0 Bft)
19.01.2022 05:21 0,7 C 92 % 1036,5 hPa 0,0 mm 0,0 km/h (0 Bft) S 174 -0,4 C 0,0 km/h (0 Bft)
19.01.2022 05:20 0,7 C 92 % 1036,5 hPa 0,0 mm 0,0 km/h (0 Bft) S 174 -0,4 C 0,0 km/h (0 Bft)
19.01.2022 05:19 0,7 C 92 % 1036,5 hPa 0,0 mm 0,0 km/h (0 Bft) S 174 -0,4 C 0,0 km/h (0 Bft)
19.01.2022 05:18 0,8 C 92 % 1036,5 hPa 0,0 mm 0,0 km/h (0 Bft) S 174 -0,3 C 0,0 km/h (0 Bft)
19.01.2022 05:17 0,8 C 92 % 1036,5 hPa 0,0 mm 0,0 km/h (0 Bft) S 174 -0,3 C 0,0 km/h (0 Bft)
19.01.2022 05:16 0,9 C 92 % 1036,5 hPa 0,0 mm 0,0 km/h (0 Bft) S 175 -0,2 C 0,0 km/h (0 Bft)
19.01.2022 05:15 0,9 C 92 % 1036,5 hPa 0,0 mm 0,0 km/h (0 Bft) S 174 -0,2 C 0,0 km/h (0 Bft)
19.01.2022 05:14 0,9 C 92 % 1036,5 hPa 0,0 mm 0,0 km/h (0 Bft) S 174 -0,2 C 0,0 km/h (0 Bft)
19.01.2022 05:13 1,0 C 92 % 1036,5 hPa 0,0 mm 0,0 km/h (0 Bft) S 174 -0,2 C 0,0 km/h (0 Bft)
19.01.2022 05:12 1,0 C 92 % 1036,5 hPa 0,0 mm 0,0 km/h (0 Bft) S 174 -0,2 C 0,0 km/h (0 Bft)
19.01.2022 05:11 1,1 C 92 % 1036,5 hPa 0,0 mm 0,0 km/h (0 Bft) S 175 -0,1 C 0,0 km/h (0 Bft)
19.01.2022 05:10 1,1 C 92 % 1036,5 hPa 0,0 mm 0,0 km/h (0 Bft) S 174 -0,1 C 0,0 km/h (0 Bft)
19.01.2022 05:09 1,1 C 92 % 1036,5 hPa 0,0 mm 0,0 km/h (0 Bft) S 175 -0,1 C 0,0 km/h (0 Bft)
19.01.2022 05:08 1,1 C 92 % 1036,5 hPa 0,0 mm 0,0 km/h (0 Bft) S 174 -0,1 C 0,0 km/h (0 Bft)
19.01.2022 05:07 1,1 C 92 % 1036,5 hPa 0,0 mm 0,0 km/h (0 Bft) S 174 -0,1 C 0,0 km/h (0 Bft)
19.01.2022 05:06 1,2 C 92 % 1036,5 hPa 0,0 mm 0,0 km/h (0 Bft) S 175 0,0 C 0,0 km/h (0 Bft)
19.01.2022 05:05 1,2 C 92 % 1036,5 hPa 0,0 mm 0,0 km/h (0 Bft) S 175 0,0 C 0,0 km/h (0 Bft)
19.01.2022 05:04 1,2 C 92 % 1036,5 hPa 0,0 mm 0,0 km/h (0 Bft) S 174 0,0 C 0,0 km/h (0 Bft)
19.01.2022 05:03 1,2 C 92 % 1036,5 hPa 0,0 mm 0,0 km/h (0 Bft) S 175 0,0 C 0,0 km/h (0 Bft)
19.01.2022 05:02 1,2 C 92 % 1036,5 hPa 0,0 mm 0,0 km/h (0 Bft) S 174 0,0 C 0,0 km/h (0 Bft)
19.01.2022 05:00 1,3 C 92 % 1036,5 hPa 0,0 mm 0,1 km/h (0 Bft) W-SW 252 0,1 C 2,4 km/h (1 Bft)
19.01.2022 04:59 1,3 C 92 % 1036,5 hPa 0,0 mm 0,0 km/h (0 Bft) W-SW 254 0,1 C 0,0 km/h (0 Bft)
19.01.2022 04:58 1,3 C 92 % 1036,5 hPa 0,0 mm 0,0 km/h (0 Bft) W-SW 255 0,1 C 0,0 km/h (0 Bft)
19.01.2022 04:57 1,3 C 92 % 1036,5 hPa 0,0 mm 0,0 km/h (0 Bft) W-SW 255 0,1 C 0,0 km/h (0 Bft)
19.01.2022 04:56 1,3 C 92 % 1036,5 hPa 0,0 mm 0,0 km/h (0 Bft) W-SW 248 0,1 C 0,0 km/h (0 Bft)
19.01.2022 04:55 1,3 C 92 % 1036,5 hPa 0,0 mm 0,2 km/h (0 Bft) W-SW 250 0,1 C 2,4 km/h (1 Bft)
19.01.2022 04:54 1,4 C 92 % 1036,5 hPa 0,0 mm 0,0 km/h (0 Bft) W-SW 239 0,2 C 0,0 km/h (0 Bft)
19.01.2022 04:53 1,4 C 92 % 1036,5 hPa 0,0 mm 0,8 km/h (0 Bft) W-SW 239 0,2 C 4,8 km/h (1 Bft)
19.01.2022 04:52 1,4 C 92 % 1036,5 hPa 0,0 mm 0,0 km/h (0 Bft) S-SW 198 0,2 C 0,0 km/h (0 Bft)
19.01.2022 04:51 1,4 C 92 % 1036,5 hPa 0,0 mm 0,0 km/h (0 Bft) S-SW 200 0,2 C 0,0 km/h (0 Bft)
19.01.2022 04:50 1,4 C 92 % 1036,5 hPa 0,0 mm 0,0 km/h (0 Bft) S-SW 198 0,2 C 0,0 km/h (0 Bft)
19.01.2022 04:49 1,4 C 92 % 1036,5 hPa 0,0 mm 0,0 km/h (0 Bft) S-SW 198 0,2 C 0,0 km/h (0 Bft)
19.01.2022 04:48 1,4 C 92 % 1036,5 hPa 0,0 mm 0,1 km/h (0 Bft) S-SW 198 0,2 C 2,4 km/h (1 Bft)
19.01.2022 04:47 1,4 C 92 % 1036,5 hPa 0,0 mm 0,0 km/h (0 Bft) W-SW 245 0,2 C 0,0 km/h (0 Bft)
19.01.2022 04:46 1,4 C 92 % 1036,5 hPa 0,0 mm 0,1 km/h (0 Bft) W-SW 239 0,2 C 2,4 km/h (1 Bft)
19.01.2022 04:45 1,4 C 92 % 1036,5 hPa 0,0 mm 0,0 km/h (0 Bft) S 184 0,2 C 0,0 km/h (0 Bft)
19.01.2022 04:44 1,4 C 92 % 1036,5 hPa 0,0 mm 0,0 km/h (0 Bft) S 181 0,2 C 0,0 km/h (0 Bft)
19.01.2022 04:43 1,5 C 92 % 1036,5 hPa 0,0 mm 0,0 km/h (0 Bft) SO 141 0,3 C 0,0 km/h (0 Bft)
19.01.2022 04:42 1,5 C 92 % 1036,5 hPa 0,0 mm 0,0 km/h (0 Bft) SO 141 0,3 C 0,0 km/h (0 Bft)
19.01.2022 04:41 1,5 C 92 % 1036,5 hPa 0,0 mm 0,0 km/h (0 Bft) SO 141 0,3 C 0,0 km/h (0 Bft)
19.01.2022 04:40 1,5 C 92 % 1036,5 hPa 0,0 mm 0,0 km/h (0 Bft) SO 141 0,3 C 0,0 km/h (0 Bft)
19.01.2022 04:39 1,5 C 92 % 1036,5 hPa 0,0 mm 0,0 km/h (0 Bft) SO 141 0,3 C 0,0 km/h (0 Bft)
19.01.2022 04:38 1,5 C 92 % 1036,5 hPa 0,0 mm 0,0 km/h (0 Bft) SO 138 0,3 C 0,0 km/h (0 Bft)
19.01.2022 04:37 1,6 C 92 % 1036,5 hPa 0,0 mm 0,0 km/h (0 Bft) SO 141 0,4 C 0,0 km/h (0 Bft)
19.01.2022 04:36 1,6 C 92 % 1036,5 hPa 0,0 mm 0,0 km/h (0 Bft) SO 139 0,4 C 0,0 km/h (0 Bft)
19.01.2022 04:35 1,6 C 92 % 1036,5 hPa 0,0 mm 0,0 km/h (0 Bft) SO 139 0,4 C 0,0 km/h (0 Bft)
19.01.2022 04:34 1,6 C 92 % 1036,5 hPa 0,0 mm 0,1 km/h (0 Bft) SO 139 0,4 C 2,4 km/h (1 Bft)
19.01.2022 04:33 1,6 C 92 % 1036,5 hPa 0,0 mm 0,0 km/h (0 Bft) SO 127 0,4 C 0,0 km/h (0 Bft)
19.01.2022 04:32 1,6 C 92 % 1036,5 hPa 0,0 mm 0,0 km/h (0 Bft) SO 127 0,4 C 0,0 km/h (0 Bft)
19.01.2022 04:31 1,6 C 92 % 1036,5 hPa 0,0 mm 0,0 km/h (0 Bft) SO 127 0,4 C 0,0 km/h (0 Bft)
19.01.2022 04:30 1,6 C 92 % 1036,5 hPa 0,0 mm 0,0 km/h (0 Bft) SO 128 0,4 C 0,0 km/h (0 Bft)
19.01.2022 04:29 1,6 C 92 % 1036,5 hPa 0,0 mm 0,2 km/h (0 Bft) SO 127 0,4 C 2,4 km/h (1 Bft)
19.01.2022 04:28 1,6 C 92 % 1036,5 hPa 0,0 mm 0,0 km/h (0 Bft) O 99 0,4 C 0,0 km/h (0 Bft)
19.01.2022 04:27 1,7 C 92 % 1036,5 hPa 0,0 mm 0,2 km/h (0 Bft) O 99 0,5 C 2,4 km/h (1 Bft)
19.01.2022 04:26 1,6 C 92 % 1036,5 hPa 0,0 mm 0,0 km/h (0 Bft) SO 127 0,4 C 0,0 km/h (0 Bft)
19.01.2022 04:25 1,7 C 92 % 1036,5 hPa 0,0 mm 0,0 km/h (0 Bft) SO 129 0,5 C 0,0 km/h (0 Bft)
19.01.2022 04:24 1,7 C 92 % 1036,5 hPa 0,0 mm 0,0 km/h (0 Bft) SO 132 0,5 C 0,0 km/h (0 Bft)
19.01.2022 04:23 1,7 C 92 % 1036,5 hPa 0,0 mm 0,0 km/h (0 Bft) SO 143 0,5 C 0,0 km/h (0 Bft)
19.01.2022 04:22 1,7 C 92 % 1036,5 hPa 0,0 mm 0,1 km/h (0 Bft) SO 142 0,5 C 2,4 km/h (1 Bft)
19.01.2022 04:21 1,7 C 92 % 1036,5 hPa 0,0 mm 0,0 km/h (0 Bft) SO 142 0,5 C 0,0 km/h (0 Bft)
19.01.2022 04:20 1,7 C 92 % 1036,5 hPa 0,0 mm 0,0 km/h (0 Bft) S-SO 149 0,5 C 0,0 km/h (0 Bft)
19.01.2022 04:19 1,7 C 92 % 1036,5 hPa 0,0 mm 0,0 km/h (0 Bft) S-SO 149 0,5 C 0,0 km/h (0 Bft)
19.01.2022 04:18 1,7 C 92 % 1036,5 hPa 0,0 mm 0,0 km/h (0 Bft) S-SO 158 0,5 C 0,0 km/h (0 Bft)
19.01.2022 04:17 1,7 C 92 % 1036,5 hPa 0,0 mm 0,0 km/h (0 Bft) S-SO 158 0,5 C 0,0 km/h (0 Bft)
19.01.2022 04:16 1,8 C 92 % 1036,5 hPa 0,0 mm 0,0 km/h (0 Bft) S-SO 158 0,6 C 0,0 km/h (0 Bft)
19.01.2022 04:15 1,8 C 92 % 1036,5 hPa 0,0 mm 0,0 km/h (0 Bft) S-SO 158 0,6 C 0,0 km/h (0 Bft)
19.01.2022 04:14 1,8 C 92 % 1036,5 hPa 0,0 mm 0,0 km/h (0 Bft) S-SO 158 0,6 C 0,0 km/h (0 Bft)
19.01.2022 04:13 1,8 C 92 % 1036,5 hPa 0,0 mm 0,0 km/h (0 Bft) S-SO 158 0,6 C 0,0 km/h (0 Bft)
19.01.2022 04:12 1,9 C 92 % 1036,5 hPa 0,0 mm 0,0 km/h (0 Bft) S-SO 158 0,7 C 0,0 km/h (0 Bft)
19.01.2022 04:11 1,9 C 92 % 1036,5 hPa 0,0 mm 0,0 km/h (0 Bft) S-SO 158 0,7 C 0,0 km/h (0 Bft)
19.01.2022 04:10 2,0 C 92 % 1036,5 hPa 0,0 mm 0,0 km/h (0 Bft) S-SO 158 0,8 C 0,0 km/h (0 Bft)
19.01.2022 04:09 2,0 C 92 % 1036,5 hPa 0,0 mm 0,0 km/h (0 Bft) S-SO 166 0,8 C 0,0 km/h (0 Bft)
19.01.2022 04:08 2,1 C 92 % 1036,5 hPa 0,0 mm 0,0 km/h (0 Bft) S-SO 165 0,9 C 0,0 km/h (0 Bft)
19.01.2022 04:07 2,1 C 92 % 1036,5 hPa 0,0 mm 0,0 km/h (0 Bft) S-SO 167 0,9 C 0,0 km/h (0 Bft)
19.01.2022 04:06 2,1 C 92 % 1036,5 hPa 0,0 mm 0,0 km/h (0 Bft) S-SO 167 0,9 C 0,0 km/h (0 Bft)
19.01.2022 04:05 2,2 C 92 % 1036,5 hPa 0,0 mm 0,0 km/h (0 Bft) S-SO 167 1,0 C 0,0 km/h (0 Bft)
19.01.2022 04:04 2,2 C 92 % 1036,5 hPa 0,0 mm 0,0 km/h (0 Bft) S-SO 167 1,0 C 0,0 km/h (0 Bft)
19.01.2022 04:03 2,2 C 92 % 1036,5 hPa 0,0 mm 0,0 km/h (0 Bft) S-SO 167 1,0 C 0,0 km/h (0 Bft)
19.01.2022 04:02 2,3 C 92 % 1036,5 hPa 0,0 mm 0,0 km/h (0 Bft) S-SO 167 1,1 C 0,0 km/h (0 Bft)
19.01.2022 04:00 2,4 C 92 % 1036,5 hPa 0,0 mm 0,0 km/h (0 Bft) S-SO 167 1,2 C 0,0 km/h (0 Bft)
19.01.2022 03:59 2,4 C 92 % 1036,5 hPa 0,0 mm 0,0 km/h (0 Bft) S-SO 167 1,2 C 0,0 km/h (0 Bft)
19.01.2022 03:58 2,5 C 92 % 1036,5 hPa 0,0 mm 0,0 km/h (0 Bft) S-SO 167 1,3 C 0,0 km/h (0 Bft)
19.01.2022 03:57 2,6 C 92 % 1036,5 hPa 0,0 mm 0,0 km/h (0 Bft) S-SO 167 1,4 C 0,0 km/h (0 Bft)
19.01.2022 03:56 2,6 C 92 % 1036,5 hPa 0,0 mm 0,1 km/h (0 Bft) S-SO 167 1,4 C 2,4 km/h (1 Bft)
19.01.2022 03:55 2,6 C 92 % 1036,5 hPa 0,0 mm 0,0 km/h (0 Bft) S-SW 202 1,4 C 0,0 km/h (0 Bft)
19.01.2022 03:54 2,7 C 92 % 1036,5 hPa 0,0 mm 0,0 km/h (0 Bft) S-SW 203 1,5 C 0,0 km/h (0 Bft)
19.01.2022 03:53 2,7 C 92 % 1036,5 hPa 0,0 mm 0,0 km/h (0 Bft) S-SW 203 1,5 C 0,0 km/h (0 Bft)
19.01.2022 03:52 2,7 C 92 % 1036,5 hPa 0,0 mm 0,0 km/h (0 Bft) S-SW 211 1,5 C 0,0 km/h (0 Bft)
19.01.2022 03:51 2,8 C 92 % 1036,5 hPa 0,0 mm 0,1 km/h (0 Bft) S-SW 211 1,6 C 2,4 km/h (1 Bft)
19.01.2022 03:50 2,8 C 92 % 1036,5 hPa 0,0 mm 0,0 km/h (0 Bft) S-SW 203 1,6 C 0,0 km/h (0 Bft)
19.01.2022 03:49 2,8 C 92 % 1036,5 hPa 0,0 mm 0,0 km/h (0 Bft) S-SW 203 1,6 C 0,0 km/h (0 Bft)
19.01.2022 03:48 2,8 C 92 % 1036,5 hPa 0,0 mm 0,0 km/h (0 Bft) S-SW 203 1,6 C 0,0 km/h (0 Bft)
19.01.2022 03:47 2,9 C 92 % 1036,5 hPa 0,0 mm 0,0 km/h (0 Bft) W-SW 238 1,7 C 0,0 km/h (0 Bft)
19.01.2022 03:46 2,9 C 92 % 1036,5 hPa 0,0 mm 0,1 km/h (0 Bft) W-SW 242 1,7 C 2,4 km/h (1 Bft)
19.01.2022 03:45 2,9 C 92 % 1036,5 hPa 0,0 mm 0,0 km/h (0 Bft) S-SO 154 1,7 C 0,0 km/h (0 Bft)
19.01.2022 03:44 2,9 C 92 % 1036,5 hPa 0,0 mm 0,0 km/h (0 Bft) S-SO 153 1,7 C 0,0 km/h (0 Bft)
19.01.2022 03:43 2,9 C 92 % 1036,5 hPa 0,0 mm 0,3 km/h (0 Bft) SO 143 1,7 C 2,4 km/h (1 Bft)
19.01.2022 03:42 3,0 C 92 % 1036,5 hPa 0,0 mm 0,1 km/h (0 Bft) S 177 1,8 C 2,4 km/h (1 Bft)
19.01.2022 03:41 2,9 C 92 % 1036,5 hPa 0,0 mm 1,1 km/h (1 Bft) W-SW 249 1,7 C 4,8 km/h (1 Bft)
19.01.2022 03:40 3,0 C 92 % 1036,5 hPa 0,0 mm 1,3 km/h (1 Bft) S-SO 159 1,8 C 7,2 km/h (2 Bft)
19.01.2022 03:39 3,0 C 92 % 1036,5 hPa 0,0 mm 0,9 km/h (0 Bft) S 188 1,8 C 2,4 km/h (1 Bft)
19.01.2022 03:38 3,0 C 92 % 1036,5 hPa 0,0 mm 0,0 km/h (0 Bft) S 170 1,8 C 0,0 km/h (0 Bft)
19.01.2022 03:37 3,0 C 92 % 1036,5 hPa 0,0 mm 0,1 km/h (0 Bft) S-SW 207 1,8 C 2,4 km/h (1 Bft)
19.01.2022 03:36 3,1 C 92 % 1036,5 hPa 0,0 mm 0,0 km/h (0 Bft) W-SW 247 1,9 C 0,0 km/h (0 Bft)
19.01.2022 03:35 3,1 C 92 % 1036,5 hPa 0,0 mm 0,5 km/h (0 Bft) S-SO 149 1,9 C 4,8 km/h (1 Bft)
19.01.2022 03:34 3,1 C 92 % 1036,5 hPa 0,0 mm 0,1 km/h (0 Bft) W-SW 256 1,9 C 2,4 km/h (1 Bft)
19.01.2022 03:33 3,1 C 92 % 1036,5 hPa 0,0 mm 0,0 km/h (0 Bft) W-SW 252 1,9 C 0,0 km/h (0 Bft)
19.01.2022 03:32 3,1 C 92 % 1036,5 hPa 0,0 mm 0,0 km/h (0 Bft) W-SW 242 1,9 C 0,0 km/h (0 Bft)
19.01.2022 03:31 3,1 C 92 % 1036,5 hPa 0,0 mm 0,0 km/h (0 Bft) W-SW 237 1,9 C 0,0 km/h (0 Bft)
19.01.2022 03:30 3,2 C 92 % 1036,5 hPa 0,0 mm 0,0 km/h (0 Bft) W-SW 242 2,0 C 0,0 km/h (0 Bft)
19.01.2022 03:29 3,2 C 92 % 1036,5 hPa 0,0 mm 0,0 km/h (0 Bft) S-SW 201 2,0 C 0,0 km/h (0 Bft)
19.01.2022 03:28 3,2 C 92 % 1036,5 hPa 0,0 mm 0,0 km/h (0 Bft) S 190 2,0 C 0,0 km/h (0 Bft)
19.01.2022 03:27 3,2 C 92 % 1036,5 hPa 0,0 mm 0,3 km/h (0 Bft) SW 224 2,0 C 2,4 km/h (1 Bft)
19.01.2022 03:26 3,3 C 92 % 1036,5 hPa 0,0 mm 0,0 km/h (0 Bft) W-SW 246 2,1 C 0,0 km/h (0 Bft)
19.01.2022 03:25 3,3 C 92 % 1036,5 hPa 0,0 mm 0,2 km/h (0 Bft) W-SW 243 2,1 C 2,4 km/h (1 Bft)
19.01.2022 03:24 3,3 C 92 % 1036,5 hPa 0,0 mm 0,0 km/h (0 Bft) SW 233 2,1 C 0,0 km/h (0 Bft)
19.01.2022 03:23 3,3 C 92 % 1036,5 hPa 0,0 mm 0,0 km/h (0 Bft) SW 222 2,1 C 0,0 km/h (0 Bft)
19.01.2022 03:22 3,3 C 92 % 1036,5 hPa 0,0 mm 0,0 km/h (0 Bft) W-SW 256 2,1 C 0,0 km/h (0 Bft)
19.01.2022 03:21 3,3 C 92 % 1036,5 hPa 0,0 mm 0,2 km/h (0 Bft) W-SW 253 2,1 C 2,4 km/h (1 Bft)
19.01.2022 03:20 3,3 C 92 % 1036,5 hPa 0,0 mm 0,3 km/h (0 Bft) W-SW 253 2,1 C 2,4 km/h (1 Bft)
19.01.2022 03:19 3,3 C 92 % 1036,5 hPa 0,0 mm 0,1 km/h (0 Bft) W-SW 253 2,1 C 2,4 km/h (1 Bft)
19.01.2022 03:18 3,4 C 92 % 1036,5 hPa 0,0 mm 0,1 km/h (0 Bft) W-SW 255 2,2 C 2,4 km/h (1 Bft)
19.01.2022 03:17 3,4 C 92 % 1036,5 hPa 0,0 mm 0,4 km/h (0 Bft) SW 229 2,2 C 2,4 km/h (1 Bft)
19.01.2022 03:16 3,4 C 92 % 1036,5 hPa 0,0 mm 0,0 km/h (0 Bft) SW 221 2,2 C 0,0 km/h (0 Bft)
19.01.2022 03:15 3,4 C 92 % 1036,5 hPa 0,0 mm 0,1 km/h (0 Bft) S-SW 213 2,2 C 2,4 km/h (1 Bft)
19.01.2022 03:14 3,4 C 92 % 1036,5 hPa 0,0 mm 0,0 km/h (0 Bft) W-SW 253 2,2 C 0,0 km/h (0 Bft)
19.01.2022 03:13 3,4 C 92 % 1036,5 hPa 0,0 mm 0,2 km/h (0 Bft) W-SW 239 2,2 C 2,4 km/h (1 Bft)
19.01.2022 03:12 3,5 C 92 % 1036,5 hPa 0,0 mm 0,4 km/h (0 Bft) SO 142 2,3 C 2,4 km/h (1 Bft)
19.01.2022 03:11 3,5 C 92 % 1036,5 hPa 0,0 mm 0,1 km/h (0 Bft) SW 233 2,3 C 2,4 km/h (1 Bft)
19.01.2022 03:10 3,5 C 92 % 1036,5 hPa 0,0 mm 0,3 km/h (0 Bft) W 271 2,3 C 2,4 km/h (1 Bft)
19.01.2022 03:09 3,5 C 92 % 1036,5 hPa 0,0 mm 0,1 km/h (0 Bft) S-SW 193 2,3 C 2,4 km/h (1 Bft)
19.01.2022 03:08 3,6 C 91 % 1036,5 hPa 0,0 mm 0,0 km/h (0 Bft) W-SW 245 2,3 C 0,0 km/h (0 Bft)
19.01.2022 03:07 3,6 C 91 % 1036,5 hPa 0,0 mm 0,7 km/h (0 Bft) W-SW 246 2,3 C 4,8 km/h (1 Bft)
19.01.2022 03:06 3,6 C 92 % 1036,5 hPa 0,0 mm 0,0 km/h (0 Bft) SW 233 2,4 C 0,0 km/h (0 Bft)
19.01.2022 03:05 3,6 C 92 % 1036,5 hPa 0,0 mm 0,2 km/h (0 Bft) W-SW 243 2,4 C 2,4 km/h (1 Bft)
19.01.2022 03:04 3,6 C 91 % 1036,5 hPa 0,0 mm 0,0 km/h (0 Bft) W-SW 249 2,3 C 0,0 km/h (0 Bft)
19.01.2022 03:03 3,6 C 91 % 1036,5 hPa 0,0 mm 0,8 km/h (0 Bft) W-SW 249 2,3 C 2,4 km/h (1 Bft)
19.01.2022 03:02 3,6 C 91 % 1036,5 hPa 0,0 mm 0,1 km/h (0 Bft) W-SW 238 2,3 C 2,4 km/h (1 Bft)
19.01.2022 03:00 3,7 C 91 % 1036,5 hPa 0,0 mm 0,1 km/h (0 Bft) W-SW 248 2,4 C 2,4 km/h (1 Bft)
19.01.2022 02:59 3,7 C 91 % 1036,5 hPa 0,0 mm 0,0 km/h (0 Bft) NW 323 2,4 C 0,0 km/h (0 Bft)
19.01.2022 02:58 3,7 C 91 % 1036,5 hPa 0,0 mm 0,0 km/h (0 Bft) N-NW 330 2,4 C 0,0 km/h (0 Bft)
19.01.2022 02:57 3,7 C 91 % 1036,5 hPa 0,0 mm 0,0 km/h (0 Bft) S-SW 200 2,4 C 0,0 km/h (0 Bft)
19.01.2022 02:56 3,7 C 91 % 1036,5 hPa 0,0 mm 0,1 km/h (0 Bft) W-SW 245 2,4 C 2,4 km/h (1 Bft)
19.01.2022 02:55 3,7 C 91 % 1036,5 hPa 0,0 mm 0,0 km/h (0 Bft) SW 222 2,4 C 0,0 km/h (0 Bft)
19.01.2022 02:54 3,7 C 91 % 1036,5 hPa 0,0 mm 0,4 km/h (0 Bft) SW 233 2,4 C 2,4 km/h (1 Bft)
19.01.2022 02:53 3,7 C 91 % 1036,5 hPa 0,0 mm 0,0 km/h (0 Bft) W-SW 248 2,4 C 0,0 km/h (0 Bft)
19.01.2022 02:52 3,7 C 91 % 1036,5 hPa 0,0 mm 0,5 km/h (0 Bft) SW 217 2,4 C 2,4 km/h (1 Bft)
19.01.2022 02:51 3,7 C 91 % 1036,5 hPa 0,0 mm 0,2 km/h (0 Bft) W-SW 254 2,4 C 2,4 km/h (1 Bft)
19.01.2022 02:50 3,7 C 91 % 1036,5 hPa 0,0 mm 0,0 km/h (0 Bft) W 278 2,4 C 0,0 km/h (0 Bft)
19.01.2022 02:49 3,7 C 91 % 1036,5 hPa 0,0 mm 0,0 km/h (0 Bft) W-SW 250 2,4 C 0,0 km/h (0 Bft)
19.01.2022 02:48 3,7 C 91 % 1036,5 hPa 0,0 mm 0,0 km/h (0 Bft) W-SW 249 2,4 C 0,0 km/h (0 Bft)
19.01.2022 02:47 3,8 C 91 % 1036,5 hPa 0,0 mm 0,1 km/h (0 Bft) SW 230 2,5 C 2,4 km/h (1 Bft)
19.01.2022 02:46 3,8 C 91 % 1036,5 hPa 0,0 mm 0,4 km/h (0 Bft) W-SW 238 2,5 C 2,4 km/h (1 Bft)
19.01.2022 02:45 3,8 C 91 % 1036,5 hPa 0,0 mm 0,2 km/h (0 Bft) W-SW 253 2,5 C 2,4 km/h (1 Bft)
19.01.2022 02:44 3,8 C 91 % 1036,5 hPa 0,0 mm 0,0 km/h (0 Bft) SW 225 2,5 C 0,0 km/h (0 Bft)
19.01.2022 02:43 3,8 C 91 % 1036,5 hPa 0,0 mm 0,6 km/h (0 Bft) S-SW 198 2,5 C 2,4 km/h (1 Bft)
19.01.2022 02:42 3,8 C 91 % 1036,5 hPa 0,0 mm 1,1 km/h (1 Bft) W-SW 243 2,5 C 4,8 km/h (1 Bft)
19.01.2022 02:41 3,8 C 91 % 1036,5 hPa 0,0 mm 0,3 km/h (0 Bft) W-SW 246 2,5 C 2,4 km/h (1 Bft)
19.01.2022 02:40 3,8 C 91 % 1036,5 hPa 0,0 mm 0,2 km/h (0 Bft) W-SW 248 2,5 C 2,4 km/h (1 Bft)
19.01.2022 02:39 3,8 C 91 % 1036,5 hPa 0,0 mm 0,8 km/h (0 Bft) SW 221 2,5 C 2,4 km/h (1 Bft)
19.01.2022 02:38 3,8 C 91 % 1036,5 hPa 0,0 mm 0,0 km/h (0 Bft) W 259 2,5 C 0,0 km/h (0 Bft)
19.01.2022 02:37 3,8 C 92 % 1036,5 hPa 0,0 mm 0,1 km/h (0 Bft) W 262 2,6 C 2,4 km/h (1 Bft)
19.01.2022 02:36 3,8 C 92 % 1036,5 hPa 0,0 mm 0,2 km/h (0 Bft) SW 222 2,6 C 2,4 km/h (1 Bft)
19.01.2022 02:35 3,8 C 92 % 1036,5 hPa 0,0 mm 0,3 km/h (0 Bft) W-SW 249 2,6 C 2,4 km/h (1 Bft)
19.01.2022 02:34 3,8 C 92 % 1036,5 hPa 0,0 mm 0,4 km/h (0 Bft) S-SW 210 2,6 C 2,4 km/h (1 Bft)
19.01.2022 02:33 3,8 C 92 % 1036,5 hPa 0,0 mm 0,3 km/h (0 Bft) SW 236 2,6 C 2,4 km/h (1 Bft)
19.01.2022 02:32 3,8 C 92 % 1036,5 hPa 0,0 mm 0,7 km/h (0 Bft) SW 215 2,6 C 2,4 km/h (1 Bft)
19.01.2022 02:31 3,8 C 92 % 1036,5 hPa 0,0 mm 0,5 km/h (0 Bft) SW 231 2,6 C 2,4 km/h (1 Bft)
19.01.2022 02:30 3,8 C 92 % 1036,5 hPa 0,0 mm 0,0 km/h (0 Bft) W-SW 239 2,6 C 0,0 km/h (0 Bft)
19.01.2022 02:29 3,8 C 92 % 1036,5 hPa 0,0 mm 0,1 km/h (0 Bft) S-SW 194 2,6 C 2,4 km/h (1 Bft)
19.01.2022 02:28 3,8 C 92 % 1036,5 hPa 0,0 mm 0,8 km/h (0 Bft) W-SW 247 2,6 C 2,4 km/h (1 Bft)
19.01.2022 02:27 3,8 C 92 % 1036,5 hPa 0,0 mm 0,0 km/h (0 Bft) S 181 2,6 C 0,0 km/h (0 Bft)
19.01.2022 02:26 3,8 C 92 % 1036,5 hPa 0,0 mm 0,1 km/h (0 Bft) S-SO 163 2,6 C 2,4 km/h (1 Bft)
19.01.2022 02:25 3,8 C 92 % 1036,5 hPa 0,0 mm 2,2 km/h (1 Bft) SO 135 2,6 C 9,6 km/h (2 Bft)
19.01.2022 02:24 3,8 C 92 % 1036,5 hPa 0,0 mm 2,0 km/h (1 Bft) S-SO 159 2,6 C 7,2 km/h (2 Bft)
19.01.2022 02:23 3,8 C 92 % 1036,5 hPa 0,0 mm 0,4 km/h (0 Bft) SW 217 2,6 C 2,4 km/h (1 Bft)
19.01.2022 02:22 3,8 C 92 % 1036,5 hPa 0,0 mm 1,1 km/h (1 Bft) SW 219 2,6 C 2,4 km/h (1 Bft)
19.01.2022 02:21 3,7 C 92 % 1036,5 hPa 0,0 mm 1,2 km/h (1 Bft) SW 214 2,5 C 4,8 km/h (1 Bft)
19.01.2022 02:20 3,7 C 92 % 1036,5 hPa 0,0 mm 0,7 km/h (0 Bft) W-SW 238 2,5 C 4,8 km/h (1 Bft)
19.01.2022 02:19 3,7 C 92 % 1036,5 hPa 0,0 mm 0,0 km/h (0 Bft) S-SW 193 2,5 C 0,0 km/h (0 Bft)
19.01.2022 02:18 3,7 C 92 % 1036,5 hPa 0,0 mm 0,0 km/h (0 Bft) S 189 2,5 C 0,0 km/h (0 Bft)
19.01.2022 02:17 3,7 C 92 % 1036,5 hPa 0,0 mm 0,0 km/h (0 Bft) S 189 2,5 C 0,0 km/h (0 Bft)
19.01.2022 02:16 3,7 C 92 % 1036,5 hPa 0,0 mm 0,0 km/h (0 Bft) S-SW 198 2,5 C 0,0 km/h (0 Bft)
19.01.2022 02:15 3,7 C 92 % 1036,5 hPa 0,0 mm 0,0 km/h (0 Bft) S-SW 198 2,5 C 0,0 km/h (0 Bft)
19.01.2022 02:14 3,7 C 92 % 1036,5 hPa 0,0 mm 0,0 km/h (0 Bft) S-SW 198 2,5 C 0,0 km/h (0 Bft)
19.01.2022 02:13 3,7 C 92 % 1036,5 hPa 0,0 mm 0,0 km/h (0 Bft) S-SW 198 2,5 C 0,0 km/h (0 Bft)
19.01.2022 02:12 3,7 C 92 % 1036,5 hPa 0,0 mm 0,0 km/h (0 Bft) S-SW 198 2,5 C 0,0 km/h (0 Bft)
19.01.2022 02:11 3,8 C 92 % 1036,5 hPa 0,0 mm 0,0 km/h (0 Bft) S-SW 198 2,6 C 0,0 km/h (0 Bft)
19.01.2022 02:10 3,8 C 92 % 1036,5 hPa 0,0 mm 0,0 km/h (0 Bft) S-SW 198 2,6 C 0,0 km/h (0 Bft)
19.01.2022 02:09 3,8 C 92 % 1036,5 hPa 0,0 mm 0,0 km/h (0 Bft) S-SW 198 2,6 C 0,0 km/h (0 Bft)
19.01.2022 02:08 3,8 C 92 % 1036,5 hPa 0,0 mm 0,0 km/h (0 Bft) S-SW 198 2,6 C 0,0 km/h (0 Bft)
19.01.2022 02:07 3,8 C 92 % 1036,5 hPa 0,0 mm 0,0 km/h (0 Bft) S-SW 198 2,6 C 0,0 km/h (0 Bft)
19.01.2022 02:06 3,8 C 92 % 1036,5 hPa 0,0 mm 0,0 km/h (0 Bft) S-SW 198 2,6 C 0,0 km/h (0 Bft)
19.01.2022 02:05 3,8 C 92 % 1036,5 hPa 0,0 mm 0,0 km/h (0 Bft) S-SW 198 2,6 C 0,0 km/h (0 Bft)
19.01.2022 02:04 3,8 C 92 % 1036,5 hPa 0,0 mm 0,0 km/h (0 Bft) S-SW 198 2,6 C 0,0 km/h (0 Bft)
19.01.2022 02:03 3,8 C 92 % 1036,5 hPa 0,0 mm 0,0 km/h (0 Bft) S-SW 198 2,6 C 0,0 km/h (0 Bft)
19.01.2022 02:02 3,8 C 92 % 1036,5 hPa 0,0 mm 0,0 km/h (0 Bft) S-SW 198 2,6 C 0,0 km/h (0 Bft)
19.01.2022 02:00 3,8 C 92 % 1036,5 hPa 0,0 mm 0,0 km/h (0 Bft) S-SW 198 2,6 C 0,0 km/h (0 Bft)
19.01.2022 01:59 3,8 C 92 % 1036,5 hPa 0,0 mm 0,0 km/h (0 Bft) S-SW 198 2,6 C 0,0 km/h (0 Bft)
19.01.2022 01:58 3,8 C 92 % 1036,5 hPa 0,0 mm 0,0 km/h (0 Bft) S-SW 198 2,6 C 0,0 km/h (0 Bft)
19.01.2022 01:57 3,8 C 92 % 1036,5 hPa 0,0 mm 0,0 km/h (0 Bft) S-SW 198 2,6 C 0,0 km/h (0 Bft)
19.01.2022 01:56 3,8 C 92 % 1036,5 hPa 0,0 mm 0,0 km/h (0 Bft) S-SW 198 2,6 C 0,0 km/h (0 Bft)
19.01.2022 01:55 3,8 C 92 % 1036,5 hPa 0,0 mm 0,0 km/h (0 Bft) S-SW 198 2,6 C 0,0 km/h (0 Bft)
19.01.2022 01:54 3,8 C 92 % 1036,5 hPa 0,0 mm 0,0 km/h (0 Bft) S-SW 198 2,6 C 0,0 km/h (0 Bft)
19.01.2022 01:53 3,8 C 92 % 1036,5 hPa 0,0 mm 0,0 km/h (0 Bft) SW 233 2,6 C 0,0 km/h (0 Bft)
19.01.2022 01:52 3,8 C 92 % 1036,5 hPa 0,0 mm 0,0 km/h (0 Bft) SW 233 2,6 C 0,0 km/h (0 Bft)
19.01.2022 01:51 3,8 C 92 % 1036,5 hPa 0,0 mm 0,0 km/h (0 Bft) SW 233 2,6 C 0,0 km/h (0 Bft)
19.01.2022 01:50 3,8 C 92 % 1036,5 hPa 0,0 mm 0,0 km/h (0 Bft) W-SW 239 2,6 C 0,0 km/h (0 Bft)
19.01.2022 01:49 3,8 C 92 % 1036,5 hPa 0,0 mm 0,0 km/h (0 Bft) W-SW 239 2,6 C 0,0 km/h (0 Bft)
19.01.2022 01:48 3,8 C 92 % 1036,5 hPa 0,0 mm 0,1 km/h (0 Bft) SW 236 2,6 C 2,4 km/h (1 Bft)
19.01.2022 01:47 3,8 C 92 % 1036,5 hPa 0,0 mm 0,0 km/h (0 Bft) SW 235 2,6 C 0,0 km/h (0 Bft)
19.01.2022 01:46 3,8 C 92 % 1036,5 hPa 0,0 mm 0,0 km/h (0 Bft) SW 235 2,6 C 0,0 km/h (0 Bft)
19.01.2022 01:45 3,8 C 92 % 1036,5 hPa 0,0 mm 0,0 km/h (0 Bft) SW 236 2,6 C 0,0 km/h (0 Bft)
19.01.2022 01:44 3,8 C 92 % 1036,5 hPa 0,0 mm 0,1 km/h (0 Bft) SW 236 2,6 C 2,4 km/h (1 Bft)
19.01.2022 01:43 3,8 C 92 % 1036,5 hPa 0,0 mm 0,0 km/h (0 Bft) S-SO 167 2,6 C 0,0 km/h (0 Bft)
19.01.2022 01:42 3,8 C 92 % 1036,5 hPa 0,0 mm 0,0 km/h (0 Bft) S-SO 167 2,6 C 0,0 km/h (0 Bft)
19.01.2022 01:41 3,8 C 92 % 1036,5 hPa 0,0 mm 0,0 km/h (0 Bft) S-SO 167 2,6 C 0,0 km/h (0 Bft)
19.01.2022 01:40 3,8 C 92 % 1036,5 hPa 0,0 mm 1,3 km/h (1 Bft) S-SO 163 2,6 C 2,4 km/h (1 Bft)
19.01.2022 01:39 3,8 C 92 % 1036,5 hPa 0,0 mm 0,1 km/h (0 Bft) W-SW 238 2,6 C 2,4 km/h (1 Bft)
19.01.2022 01:38 3,8 C 92 % 1036,5 hPa 0,0 mm 0,0 km/h (0 Bft) W-SW 238 2,6 C 0,0 km/h (0 Bft)
19.01.2022 01:37 3,8 C 92 % 1036,5 hPa 0,0 mm 0,0 km/h (0 Bft) W-SW 238 2,6 C 0,0 km/h (0 Bft)
19.01.2022 01:36 3,8 C 92 % 1036,5 hPa 0,0 mm 0,1 km/h (0 Bft) W-SW 238 2,6 C 2,4 km/h (1 Bft)
19.01.2022 01:35 3,8 C 92 % 1036,5 hPa 0,0 mm 0,0 km/h (0 Bft) W-SW 242 2,6 C 0,0 km/h (0 Bft)
19.01.2022 01:34 3,8 C 92 % 1036,5 hPa 0,0 mm 0,1 km/h (0 Bft) W-SW 242 2,6 C 2,4 km/h (1 Bft)
19.01.2022 01:33 3,8 C 92 % 1036,5 hPa 0,0 mm 0,0 km/h (0 Bft) W-SW 241 2,6 C 0,0 km/h (0 Bft)
19.01.2022 01:32 3,8 C 92 % 1036,5 hPa 0,0 mm 0,0 km/h (0 Bft) W-SW 242 2,6 C 0,0 km/h (0 Bft)
19.01.2022 01:31 3,8 C 92 % 1036,5 hPa 0,0 mm 0,0 km/h (0 Bft) SW 233 2,6 C 0,0 km/h (0 Bft)
19.01.2022 01:30 3,8 C 92 % 1036,5 hPa 0,0 mm 0,0 km/h (0 Bft) SW 233 2,6 C 0,0 km/h (0 Bft)
19.01.2022 01:29 3,8 C 92 % 1036,5 hPa 0,0 mm 0,1 km/h (0 Bft) SW 233 2,6 C 2,4 km/h (1 Bft)
19.01.2022 01:28 3,8 C 92 % 1036,5 hPa 0,0 mm 0,0 km/h (0 Bft) SW 236 2,6 C 0,0 km/h (0 Bft)
19.01.2022 01:27 3,8 C 92 % 1036,5 hPa 0,0 mm 0,0 km/h (0 Bft) SW 236 2,6 C 0,0 km/h (0 Bft)
19.01.2022 01:26 3,8 C 92 % 1036,5 hPa 0,0 mm 0,0 km/h (0 Bft) SW 236 2,6 C 0,0 km/h (0 Bft)
19.01.2022 01:25 3,8 C 92 % 1036,5 hPa 0,0 mm 0,0 km/h (0 Bft) SW 236 2,6 C 0,0 km/h (0 Bft)
19.01.2022 01:24 3,8 C 92 % 1036,5 hPa 0,0 mm 0,0 km/h (0 Bft) SW 236 2,6 C 0,0 km/h (0 Bft)
19.01.2022 01:23 3,8 C 92 % 1036,5 hPa 0,0 mm 0,0 km/h (0 Bft) SW 236 2,6 C 0,0 km/h (0 Bft)
19.01.2022 01:22 3,8 C 92 % 1036,5 hPa 0,0 mm 0,0 km/h (0 Bft) SW 236 2,6 C 0,0 km/h (0 Bft)
19.01.2022 01:21 3,8 C 92 % 1036,5 hPa 0,0 mm 0,0 km/h (0 Bft) SW 236 2,6 C 0,0 km/h (0 Bft)
19.01.2022 01:20 3,8 C 92 % 1036,5 hPa 0,0 mm 0,0 km/h (0 Bft) SW 236 2,6 C 0,0 km/h (0 Bft)
19.01.2022 01:19 3,8 C 92 % 1036,5 hPa 0,0 mm 0,0 km/h (0 Bft) SW 236 2,6 C 0,0 km/h (0 Bft)
19.01.2022 01:18 3,8 C 92 % 1036,5 hPa 0,0 mm 0,0 km/h (0 Bft) SW 236 2,6 C 0,0 km/h (0 Bft)
19.01.2022 01:17 3,8 C 92 % 1036,5 hPa 0,0 mm 0,0 km/h (0 Bft) SW 236 2,6 C 0,0 km/h (0 Bft)
19.01.2022 01:16 3,8 C 92 % 1036,5 hPa 0,0 mm 0,0 km/h (0 Bft) SW 236 2,6 C 0,0 km/h (0 Bft)
19.01.2022 01:15 3,8 C 92 % 1036,5 hPa 0,0 mm 0,0 km/h (0 Bft) SW 236 2,6 C 0,0 km/h (0 Bft)
19.01.2022 01:14 3,8 C 92 % 1036,5 hPa 0,0 mm 0,1 km/h (0 Bft) SW 236 2,6 C 2,4 km/h (1 Bft)
19.01.2022 01:13 3,8 C 92 % 1036,5 hPa 0,0 mm 0,1 km/h (0 Bft) SW 235 2,6 C 2,4 km/h (1 Bft)
19.01.2022 01:12 3,8 C 92 % 1036,5 hPa 0,0 mm 0,1 km/h (0 Bft) W-SW 242 2,6 C 2,4 km/h (1 Bft)
19.01.2022 01:11 3,8 C 92 % 1036,5 hPa 0,0 mm 0,1 km/h (0 Bft) S-SW 203 2,6 C 2,4 km/h (1 Bft)
19.01.2022 01:10 3,8 C 92 % 1036,5 hPa 0,0 mm 0,1 km/h (0 Bft) W-SW 249 2,6 C 2,4 km/h (1 Bft)
19.01.2022 01:09 3,8 C 92 % 1036,5 hPa 0,0 mm 0,0 km/h (0 Bft) W-SW 239 2,6 C 0,0 km/h (0 Bft)
19.01.2022 01:08 3,8 C 92 % 1036,5 hPa 0,0 mm 0,0 km/h (0 Bft) W-SW 238 2,6 C 0,0 km/h (0 Bft)
19.01.2022 01:07 3,8 C 92 % 1036,5 hPa 0,0 mm 0,1 km/h (0 Bft) W-SW 238 2,6 C 2,4 km/h (1 Bft)
19.01.2022 01:06 3,8 C 92 % 1036,5 hPa 0,0 mm 0,0 km/h (0 Bft) W-SW 239 2,6 C 0,0 km/h (0 Bft)
19.01.2022 01:05 3,8 C 92 % 1036,5 hPa 0,0 mm 0,1 km/h (0 Bft) SW 236 2,6 C 2,4 km/h (1 Bft)
19.01.2022 01:04 3,8 C 92 % 1036,5 hPa 0,0 mm 0,0 km/h (0 Bft) SW 236 2,6 C 0,0 km/h (0 Bft)
19.01.2022 01:03 3,8 C 92 % 1036,5 hPa 0,0 mm 0,0 km/h (0 Bft) SW 236 2,6 C 0,0 km/h (0 Bft)
19.01.2022 01:02 3,8 C 92 % 1036,5 hPa 0,0 mm 0,1 km/h (0 Bft) SW 235 2,6 C 2,4 km/h (1 Bft)
19.01.2022 01:00 3,8 C 92 % 1036,5 hPa 0,0 mm 0,0 km/h (0 Bft) SW 236 2,6 C 0,0 km/h (0 Bft)
19.01.2022 00:59 3,8 C 92 % 1036,5 hPa 0,0 mm 0,0 km/h (0 Bft) SW 236 2,6 C 0,0 km/h (0 Bft)
19.01.2022 00:58 3,8 C 92 % 1036,5 hPa 0,0 mm 0,0 km/h (0 Bft) SW 236 2,6 C 0,0 km/h (0 Bft)
19.01.2022 00:57 3,8 C 92 % 1036,5 hPa 0,0 mm 0,1 km/h (0 Bft) SW 236 2,6 C 2,4 km/h (1 Bft)
19.01.2022 00:56 3,8 C 92 % 1036,5 hPa 0,0 mm 0,0 km/h (0 Bft) W-SW 242 2,6 C 0,0 km/h (0 Bft)
19.01.2022 00:55 3,8 C 92 % 1036,5 hPa 0,0 mm 0,0 km/h (0 Bft) W-SW 241 2,6 C 0,0 km/h (0 Bft)
19.01.2022 00:54 3,8 C 92 % 1036,5 hPa 0,0 mm 0,0 km/h (0 Bft) S-SW 208 2,6 C 0,0 km/h (0 Bft)
19.01.2022 00:53 3,8 C 92 % 1036,5 hPa 0,0 mm 0,1 km/h (0 Bft) S-SW 208 2,6 C 2,4 km/h (1 Bft)
19.01.2022 00:52 3,8 C 92 % 1036,5 hPa 0,0 mm 0,4 km/h (0 Bft) W-SW 252 2,6 C 2,4 km/h (1 Bft)
19.01.2022 00:51 3,8 C 92 % 1036,5 hPa 0,0 mm 0,0 km/h (0 Bft) S 187 2,6 C 0,0 km/h (0 Bft)
19.01.2022 00:50 3,8 C 92 % 1036,5 hPa 0,0 mm 0,1 km/h (0 Bft) S-SO 160 2,6 C 2,4 km/h (1 Bft)
19.01.2022 00:49 3,8 C 92 % 1036,5 hPa 0,0 mm 0,0 km/h (0 Bft) SW 222 2,6 C 0,0 km/h (0 Bft)
19.01.2022 00:48 3,8 C 92 % 1036,5 hPa 0,0 mm 0,0 km/h (0 Bft) SW 222 2,6 C 0,0 km/h (0 Bft)
19.01.2022 00:47 3,8 C 92 % 1036,5 hPa 0,0 mm 0,0 km/h (0 Bft) SW 224 2,6 C 0,0 km/h (0 Bft)
19.01.2022 00:46 3,8 C 92 % 1036,5 hPa 0,0 mm 0,0 km/h (0 Bft) SW 214 2,6 C 0,0 km/h (0 Bft)
19.01.2022 00:45 3,8 C 92 % 1036,5 hPa 0,0 mm 0,0 km/h (0 Bft) W-SW 238 2,6 C 0,0 km/h (0 Bft)
19.01.2022 00:44 3,8 C 92 % 1036,5 hPa 0,0 mm 0,1 km/h (0 Bft) W-SW 242 2,6 C 2,4 km/h (1 Bft)
19.01.2022 00:43 3,8 C 92 % 1036,5 hPa 0,0 mm 0,0 km/h (0 Bft) W-SW 242 2,6 C 0,0 km/h (0 Bft)
19.01.2022 00:42 3,8 C 92 % 1036,5 hPa 0,0 mm 0,0 km/h (0 Bft) SW 232 2,6 C 0,0 km/h (0 Bft)
19.01.2022 00:41 3,8 C 92 % 1036,5 hPa 0,0 mm 1,7 km/h (1 Bft) SW 225 2,6 C 4,8 km/h (1 Bft)
19.01.2022 00:40 3,8 C 92 % 1036,5 hPa 0,0 mm 0,1 km/h (0 Bft) SW 231 2,6 C 2,4 km/h (1 Bft)
19.01.2022 00:39 3,8 C 92 % 1036,5 hPa 0,0 mm 0,5 km/h (0 Bft) SW 233 2,6 C 2,4 km/h (1 Bft)
19.01.2022 00:38 3,8 C 92 % 1036,5 hPa 0,0 mm 0,0 km/h (0 Bft) W-SW 241 2,6 C 0,0 km/h (0 Bft)
19.01.2022 00:37 3,8 C 92 % 1036,5 hPa 0,0 mm 0,0 km/h (0 Bft) W-SW 252 2,6 C 0,0 km/h (0 Bft)
19.01.2022 00:36 3,8 C 92 % 1036,5 hPa 0,0 mm 0,0 km/h (0 Bft) W-SW 252 2,6 C 0,0 km/h (0 Bft)
19.01.2022 00:35 3,8 C 92 % 1036,5 hPa 0,0 mm 0,0 km/h (0 Bft) W-SW 256 2,6 C 0,0 km/h (0 Bft)
19.01.2022 00:34 3,9 C 92 % 1036,5 hPa 0,0 mm 0,0 km/h (0 Bft) S-SW 207 2,7 C 0,0 km/h (0 Bft)
19.01.2022 00:33 3,8 C 92 % 1036,5 hPa 0,0 mm 0,0 km/h (0 Bft) S-SW 203 2,6 C 0,0 km/h (0 Bft)
19.01.2022 00:32 3,9 C 92 % 1036,5 hPa 0,0 mm 0,0 km/h (0 Bft) S-SW 205 2,7 C 0,0 km/h (0 Bft)
19.01.2022 00:31 3,9 C 92 % 1036,5 hPa 0,0 mm 0,0 km/h (0 Bft) S-SO 167 2,7 C 0,0 km/h (0 Bft)
19.01.2022 00:30 3,9 C 92 % 1036,5 hPa 0,0 mm 0,6 km/h (0 Bft) S-SO 167 2,7 C 2,4 km/h (1 Bft)
19.01.2022 00:29 3,9 C 92 % 1036,5 hPa 0,0 mm 0,1 km/h (0 Bft) S-SW 203 2,7 C 2,4 km/h (1 Bft)
19.01.2022 00:28 3,9 C 92 % 1036,5 hPa 0,0 mm 0,1 km/h (0 Bft) SW 222 2,7 C 2,4 km/h (1 Bft)
19.01.2022 00:27 3,9 C 92 % 1036,5 hPa 0,0 mm 0,3 km/h (0 Bft) SW 229 2,7 C 2,4 km/h (1 Bft)
19.01.2022 00:26 3,9 C 92 % 1036,5 hPa 0,0 mm 0,9 km/h (0 Bft) S-SW 193 2,7 C 2,4 km/h (1 Bft)
19.01.2022 00:25 3,9 C 92 % 1036,5 hPa 0,0 mm 0,0 km/h (0 Bft) W-SW 252 2,7 C 0,0 km/h (0 Bft)
19.01.2022 00:24 3,9 C 92 % 1036,5 hPa 0,0 mm 0,2 km/h (0 Bft) W-SW 255 2,7 C 2,4 km/h (1 Bft)
19.01.2022 00:23 3,9 C 92 % 1036,5 hPa 0,0 mm 0,2 km/h (0 Bft) W-SW 252 2,7 C 2,4 km/h (1 Bft)
19.01.2022 00:22 3,9 C 92 % 1036,5 hPa 0,0 mm 0,0 km/h (0 Bft) SW 214 2,7 C 0,0 km/h (0 Bft)
19.01.2022 00:21 3,9 C 92 % 1036,5 hPa 0,0 mm 0,1 km/h (0 Bft) W-SW 249 2,7 C 2,4 km/h (1 Bft)
19.01.2022 00:20 3,9 C 92 % 1036,5 hPa 0,0 mm 0,0 km/h (0 Bft) W-SW 238 2,7 C 0,0 km/h (0 Bft)
19.01.2022 00:19 3,9 C 92 % 1036,5 hPa 0,0 mm 0,1 km/h (0 Bft) W-SW 238 2,7 C 2,4 km/h (1 Bft)
19.01.2022 00:18 3,9 C 92 % 1036,5 hPa 0,0 mm 0,0 km/h (0 Bft) W-SW 238 2,7 C 0,0 km/h (0 Bft)
19.01.2022 00:17 3,9 C 92 % 1036,5 hPa 0,0 mm 0,6 km/h (0 Bft) W-SW 248 2,7 C 2,4 km/h (1 Bft)
19.01.2022 00:16 3,9 C 92 % 1036,5 hPa 0,0 mm 0,2 km/h (0 Bft) SW 221 2,7 C 2,4 km/h (1 Bft)
19.01.2022 00:15 3,9 C 92 % 1036,5 hPa 0,0 mm 0,0 km/h (0 Bft) SW 229 2,7 C 0,0 km/h (0 Bft)
19.01.2022 00:14 3,9 C 92 % 1036,5 hPa 0,0 mm 0,0 km/h (0 Bft) SW 236 2,7 C 0,0 km/h (0 Bft)
19.01.2022 00:13 3,9 C 92 % 1036,5 hPa 0,0 mm 0,1 km/h (0 Bft) W-SW 239 2,7 C 2,4 km/h (1 Bft)
19.01.2022 00:12 3,9 C 92 % 1036,5 hPa 0,0 mm 0,4 km/h (0 Bft) W-SW 241 2,7 C 2,4 km/h (1 Bft)
19.01.2022 00:11 3,9 C 92 % 1036,5 hPa 0,0 mm 0,1 km/h (0 Bft) W-SW 249 2,7 C 2,4 km/h (1 Bft)
19.01.2022 00:10 3,9 C 92 % 1036,5 hPa 0,0 mm 0,0 km/h (0 Bft) SW 232 2,7 C 0,0 km/h (0 Bft)
19.01.2022 00:09 3,9 C 92 % 1036,5 hPa 0,0 mm 0,0 km/h (0 Bft) S 174 2,7 C 0,0 km/h (0 Bft)
19.01.2022 00:08 3,9 C 92 % 1036,5 hPa 0,0 mm 1,4 km/h (1 Bft) S-SW 212 2,7 C 4,8 km/h (1 Bft)
19.01.2022 00:07 3,9 C 92 % 1036,5 hPa 0,0 mm 0,0 km/h (0 Bft) W-SW 245 2,7 C 0,0 km/h (0 Bft)
19.01.2022 00:06 3,9 C 92 % 1036,5 hPa 0,0 mm 0,1 km/h (0 Bft) W-SW 248 2,7 C 2,4 km/h (1 Bft)
19.01.2022 00:05 3,9 C 92 % 1036,5 hPa 0,0 mm 0,2 km/h (0 Bft) S-SW 208 2,7 C 2,4 km/h (1 Bft)
19.01.2022 00:04 3,9 C 92 % 1036,5 hPa 0,0 mm 0,1 km/h (0 Bft) S 183 2,7 C 2,4 km/h (1 Bft)
19.01.2022 00:03 3,9 C 92 % 1036,5 hPa 0,0 mm 0,9 km/h (0 Bft) SW 236 2,7 C 4,8 km/h (1 Bft)
19.01.2022 00:00 3,9 C 92 % 1036,5 hPa 0,0 mm 0,4 km/h (0 Bft) SW 232 2,7 C 2,4 km/h (1 Bft)
_ Min-Zeit 08:09 12:46 00:00 - 00:07 - - 08:09 00:07
Minimum _ -1,4 C 88 % 1036,5 hPa - 0,0 km/h (0 Bft) - - -2,5 C 0,0 km/h (0 Bft)
_ Max-Zeit 00:00 06:10 00:00 00:00 10:29 - - 00:00 10:28
Maximum _ 3,9 C 93 % 1036,5 hPa 0,0 mm 9,5 km/h
S (2 Bft)
- - 2,7 C 19,2 km/h
W-SW (3 Bft)
Durchschnitt _ 1,8 C 91 % 1036,5 hPa #0,0 mm 0,9 km/h (0 Bft) SW - 0,6 C 2,6 km/h (1 Bft)